M I D A S
Marine Information and Data Acquisition System
Tripno 1156 of the Zeeleeuw from 2006-08-30 06:22:36 to 2006-08-30 15:14:32
Back to CruiseResearch ActivitiesStationsMapUnderway DataData graphs

EquipmentUnitsComment
TimeDGPSUTC
LatitudeDGPSDM.mWGS84
LongitudeDGPSDM.mWGS84
TemperatureSBE03/SBE38deg celciusITS90
ConductivitySBE21S/mITS90
SalinitySBE21 Practical Salinity Units
ChlorophylAChelsea fluorimeterg/lCalibrated in Aceton
Missing or incorrect values are displayed as -999
Sea surface data collected by the RV Zeeleeuw from 2006-08-30 06:22:43 to 2006-08-30 15:25:18
                                                                                    Next 1000 lines
Time Latitude Longitude Temperature Conductivity Salinity ChlorophylA
2006-08-30 06:22:53 51°13.597 2°56.09 21.6451 0.573806 3.347217 0.634546
2006-08-30 06:22:58 51°13.598 2°56.087 21.6613 0.573806 3.347217 0.600836
2006-08-30 06:23:03 51°13.599 2°56.084 21.6592 0.573806 3.347217 0.634546
2006-08-30 06:23:08 51°13.599 2°56.081 21.6565 0.573701 3.346567 0.634546
2006-08-30 06:23:13 51°13.601 2°56.076 21.6457 0.573806 3.347217 0.634546
2006-08-30 06:23:19 51°13.602 2°56.072 21.6618 0.573806 3.347217 0.634546
2006-08-30 06:23:24 51°13.603 2°56.067 21.6637 0.573701 3.346515 0.634546
2006-08-30 06:23:29 51°13.604 2°56.062 21.6758 0.573701 3.346515 0.634546
2006-08-30 06:23:34 51°13.606 2°56.057 21.6647 0.573806 3.347164 0.634546
2006-08-30 06:23:39 51°13.607 2°56.052 21.6562 0.573701 3.346567 0.634546
2006-08-30 06:23:44 51°13.609 2°56.046 21.661 0.573701 3.346567 0.634546
2006-08-30 06:23:49 51°13.61 2°56.04 21.6688 0.573701 3.346567 0.634546
2006-08-30 06:23:54 51°13.612 2°56.034 21.6674 0.573701 3.346567 0.634546
2006-08-30 06:23:59 51°13.613 2°56.028 21.6668 0.573701 3.346515 0.600836
2006-08-30 06:24:04 51°13.615 2°56.021 21.6646 0.573701 3.346567 0.634546
2006-08-30 06:24:09 51°13.617 2°56.014 21.6646 0.573701 3.346567 0.634546
2006-08-30 06:24:14 51°13.618 2°56.008 21.6843 0.573701 3.346567 0.634546
2006-08-30 06:24:19 51°13.62 2°56.001 21.6682 0.573701 3.346567 0.634546
2006-08-30 06:24:24 51°13.622 2°55.994 21.6782 0.573701 3.34662 0.634546
2006-08-30 06:24:30 51°13.625 2°55.986 21.6675 0.573701 3.34662 0.567127
2006-08-30 06:24:34 51°13.626 2°55.98 21.6721 0.573701 3.346567 0.634546
2006-08-30 06:24:39 51°13.628 2°55.973 21.6769 0.573701 3.346567 0.600836
2006-08-30 06:24:44 51°13.631 2°55.966 21.6779 0.573701 3.346567 0.600836
2006-08-30 06:24:49 51°13.633 2°55.959 21.6737 0.573701 3.346567 0.600836
2006-08-30 06:24:54 51°13.635 2°55.953 21.6753 0.573701 3.346567 0.600836
2006-08-30 06:24:59 51°13.638 2°55.946 21.665 0.573701 3.346567 0.600836
2006-08-30 06:25:04 51°13.64 2°55.939 21.668 0.573701 3.346515 0.634546
2006-08-30 06:25:09 51°13.643 2°55.933 21.6655 0.573701 3.346515 0.634546
2006-08-30 06:25:14 51°13.645 2°55.926 21.6698 0.573701 3.346462 0.634546
2006-08-30 06:25:19 51°13.648 2°55.92 21.6725 0.573701 3.346462 0.634546
2006-08-30 06:25:24 51°13.65 2°55.913 21.6714 0.573701 3.346567 0.600836
2006-08-30 06:25:29 51°13.653 2°55.907 21.6545 0.573701 3.346515 0.634546
2006-08-30 06:25:34 51°13.656 2°55.9 21.6538 0.573701 3.346515 0.634546
2006-08-30 06:25:39 51°13.659 2°55.893 21.6564 0.573701 3.34662 0.634546
2006-08-30 06:25:44 51°13.661 2°55.887 21.6635 0.573701 3.34662 0.600836
2006-08-30 06:25:49 51°13.664 2°55.88 21.6628 0.573701 3.34662 0.600836
2006-08-30 06:25:54 51°13.666 2°55.874 21.6736 0.573701 3.346567 0.668255
2006-08-30 06:25:59 51°13.669 2°55.867 21.6754 0.573701 3.34662 0.600836
2006-08-30 06:26:04 51°13.671 2°55.861 21.6825 0.573701 3.34662 0.600836
2006-08-30 06:26:09 51°13.674 2°55.854 21.6783 0.573701 3.34662 0.600836
2006-08-30 06:26:14 51°13.676 2°55.848 21.6885 0.573701 3.346673 0.600836
2006-08-30 06:26:19 51°13.678 2°55.841 21.6841 0.573701 3.346673 0.600836
2006-08-30 06:26:24 51°13.68 2°55.835 21.6867 0.573701 3.346673 0.634546
2006-08-30 06:26:29 51°13.682 2°55.829 21.6658 0.573701 3.34662 0.600836
2006-08-30 06:26:34 51°13.684 2°55.823 21.684 0.573701 3.34662 0.634546
2006-08-30 06:26:39 51°13.686 2°55.817 21.6613 0.573701 3.346673 0.634546
2006-08-30 06:26:44 51°13.687 2°55.811 21.6629 0.573701 3.34662 0.634546
2006-08-30 06:26:50 51°13.689 2°55.804 21.6602 0.573701 3.34662 0.634546
2006-08-30 06:26:54 51°13.69 2°55.8 21.6716 0.573701 3.346725 0.634546
2006-08-30 06:26:59 51°13.691 2°55.794 21.673 0.573701 3.346725 0.600836
2006-08-30 06:27:04 51°13.693 2°55.788 21.6792 0.573701 3.346725 0.634546
2006-08-30 06:27:09 51°13.694 2°55.783 21.676 0.573701 3.346778 0.634546
2006-08-30 06:27:14 51°13.695 2°55.777 21.6754 0.573701 3.346778 0.634546
2006-08-30 06:27:19 51°13.696 2°55.772 21.6849 0.573701 3.346778 0.634546
2006-08-30 06:27:24 51°13.698 2°55.766 21.6872 0.573701 3.346831 0.634546
2006-08-30 06:27:29 51°13.699 2°55.761 21.6914 0.573701 3.346831 0.634546
2006-08-30 06:27:34 51°13.7 2°55.755 21.6969 0.573701 3.346831 0.634546
2006-08-30 06:27:39 51°13.701 2°55.75 21.6941 0.573701 3.346831 0.634546
2006-08-30 06:27:44 51°13.702 2°55.745 21.6933 0.573701 3.346883 0.634546
2006-08-30 06:27:49 51°13.702 2°55.741 21.7004 0.573701 3.346883 0.634546
2006-08-30 06:27:54 51°13.703 2°55.737 21.6987 0.573701 3.346831 0.634546
2006-08-30 06:27:59 51°13.703 2°55.734 21.7071 0.573701 3.346883 0.634546
2006-08-30 06:28:04 51°13.703 2°55.733 21.7036 0.573701 3.346831 0.634546
2006-08-30 06:28:09 51°13.704 2°55.731 21.7071 0.573701 3.346831 0.634546
2006-08-30 06:28:13 51°13.704 2°55.731 21.7112 0.573701 3.346778 0.634546
2006-08-30 06:28:18 51°13.704 2°55.73 21.7013 0.573701 3.346778 0.634546
2006-08-30 06:28:23 51°13.704 2°55.731 21.704 0.573701 3.346936 0.634546
2006-08-30 06:28:28 51°13.705 2°55.732 21.7101 0.573701 3.346989 0.634546
2006-08-30 06:28:33 51°13.705 2°55.733 21.6871 0.573701 3.347094 0.600836
2006-08-30 06:28:37 51°13.706 2°55.734 21.6945 0.573701 3.3472 0.634546
2006-08-30 06:28:43 51°13.706 2°55.736 21.7074 0.573701 3.347252 0.668255
2006-08-30 06:28:48 51°13.707 2°55.738 21.7126 0.573701 3.347252 0.668255
2006-08-30 06:28:53 51°13.708 2°55.74 21.7098 0.573701 3.3472 0.634546
2006-08-30 06:28:58 51°13.709 2°55.743 21.6728 0.573701 3.347252 0.634546
2006-08-30 06:29:03 51°13.71 2°55.745 21.5998 0.573597 3.346602 0.634546
2006-08-30 06:29:07 51°13.711 2°55.746 21.6713 0.573701 3.347305 0.634546
2006-08-30 06:29:13 51°13.711 2°55.746 21.6699 0.573701 3.347147 0.600836
2006-08-30 06:29:18 51°13.711 2°55.746 21.6655 0.573701 3.347147 0.600836
2006-08-30 06:29:23 51°13.71 2°55.746 21.6839 0.573701 3.347094 0.600836
2006-08-30 06:29:28 51°13.709 2°55.745 21.6998 0.573701 3.347094 0.600836
2006-08-30 06:29:33 51°13.708 2°55.744 21.6565 0.574432 3.351695 0.600836
2006-08-30 06:29:38 51°13.707 2°55.743 21.6662 0.574745 3.353803 0.634546
2006-08-30 06:29:43 51°13.705 2°55.743 21.692 0.574745 3.353803 0.600836
2006-08-30 06:29:48 51°13.704 2°55.742 21.7014 0.574745 3.353803 0.600836
2006-08-30 06:29:54 51°13.702 2°55.74 21.7045 0.574745 3.353962 0.634546
2006-08-30 06:29:59 51°13.701 2°55.74 21.7127 0.574745 3.353962 0.600836
2006-08-30 06:30:04 51°13.701 2°55.74 21.7101 0.57464 3.353259 0.634546
2006-08-30 06:30:09 51°13.701 2°55.74 21.7183 0.574536 3.352398 0.600836
2006-08-30 06:30:14 51°13.701 2°55.74 21.7169 0.574536 3.352187 0.600836
2006-08-30 06:30:19 51°13.702 2°55.741 21.7213 0.574536 3.352187 0.600836
2006-08-30 06:30:24 51°13.704 2°55.741 20.999 0.574536 3.352081 0.600836
2006-08-30 06:30:29 51°13.705 2°55.741 20.4243 0.574432 3.351432 0.634546
2006-08-30 06:30:33 51°13.707 2°55.74 19.8499 0.563999 3.303938 0.904221
2006-08-30 06:30:38 51°13.709 2°55.74 19.4631 0.773421 4.64197 1.005349
2006-08-30 06:30:43 51°13.712 2°55.739 19.2026 0.690809 4.105805 2.421144
2006-08-30 06:30:48 51°13.715 2°55.737 19.1519 0.690809 4.105805 2.421144
2006-08-30 06:30:53 51°13.718 2°55.735 19.0098 1.799607 11.475129 1.982922
2006-08-30 06:30:58 51°13.721 2°55.733 18.9701 2.091456 13.525207 1.173896
2006-08-30 06:31:03 51°13.725 2°55.73 18.8538 2.337615 15.409338 1.376153
2006-08-30 06:31:09 51°13.73 2°55.726 18.8257 3.693376 25.797002 1.477281
2006-08-30 06:31:13 51°13.733 2°55.722 18.8126 2.421496 16.361617 1.376153
2006-08-30 06:31:18 51°13.737 2°55.718 18.7485 2.421496 16.361617 1.376153
2006-08-30 06:31:23 51°13.742 2°55.713 18.7271 3.949006 28.325877 1.342443
2006-08-30 06:31:28 51°13.746 2°55.708 18.6974 3.927933 28.334186 1.275024
2006-08-30 06:31:33 51°13.752 2°55.703 18.6903 3.909178 28.280589 1.308734
2006-08-30 06:31:38 51°13.757 2°55.697 18.6609 3.880201 28.150145 1.275024
2006-08-30 06:31:43 51°13.762 2°55.692 18.6293 3.866925 28.113243 1.241315
2006-08-30 06:31:48 51°13.768 2°55.686 18.6086 3.866925 28.113243 1.241315
2006-08-30 06:31:53 51°13.773 2°55.68 18.5701 3.842269 27.957712 1.241315
2006-08-30 06:31:59 51°13.781 2°55.673 18.5521 3.816454 27.790614 1.241315
2006-08-30 06:32:02 51°13.785 2°55.67 18.5645 3.82636 27.906254 1.241315
2006-08-30 06:32:07 51°13.791 2°55.664 18.5345 3.822251 27.900831 1.207606
2006-08-30 06:32:13 51°13.799 2°55.657 18.5284 3.816456 27.877876 1.241315
2006-08-30 06:32:18 51°13.806 2°55.652 18.5235 3.816456 27.877876 1.241315
2006-08-30 06:32:22 51°13.812 2°55.647 18.5311 3.785795 27.655483 1.241315
2006-08-30 06:32:28 51°13.821 2°55.64 18.5167 3.781581 27.637531 1.241315
2006-08-30 06:32:33 51°13.829 2°55.635 18.5137 3.755452 27.454534 1.241315
2006-08-30 06:32:38 51°13.837 2°55.629 18.5085 3.722792 27.201405 1.241315
2006-08-30 06:32:42 51°13.844 2°55.624 18.4859 3.745444 27.397978 1.207606
2006-08-30 06:32:48 51°13.854 2°55.617 18.4875 3.745444 27.397978 1.207606
2006-08-30 06:32:53 51°13.862 2°55.611 18.4979 3.745654 27.410138 1.207606
2006-08-30 06:32:58 51°13.871 2°55.605 18.472 3.745233 27.413843 1.173896
2006-08-30 06:33:02 51°13.878 2°55.599 18.4592 3.749869 27.456274 1.207606
2006-08-30 06:33:09 51°13.89 2°55.591 18.4515 3.749026 27.455137 1.207606
2006-08-30 06:33:13 51°13.898 2°55.586 18.4431 3.753241 27.498466 1.173896
2006-08-30 06:33:18 51°13.906 2°55.58 18.4238 3.753241 27.498466 1.173896
2006-08-30 06:33:23 51°13.916 2°55.573 18.4079 3.757139 27.537346 1.207606
2006-08-30 06:33:28 51°13.925 2°55.567 18.3599 3.760616 27.568511 1.173896
2006-08-30 06:33:33 51°13.934 2°55.561 18.3365 3.763145 27.596761 1.207606
2006-08-30 06:33:38 51°13.944 2°55.554 18.3376 3.760616 27.585277 1.207606
2006-08-30 06:33:43 51°13.953 2°55.548 18.3129 3.760511 27.593049 1.207606
2006-08-30 06:33:48 51°13.962 2°55.541 18.2946 3.760511 27.593049 1.207606
2006-08-30 06:33:53 51°13.972 2°55.535 18.3005 3.754295 27.547681 1.207606
2006-08-30 06:33:58 51°13.981 2°55.528 18.2728 3.744497 27.481733 1.207606
2006-08-30 06:34:03 51°13.991 2°55.522 18.2526 3.730485 27.385705 1.173896
2006-08-30 06:34:09 51°14.002 2°55.514 18.239 3.724164 27.353253 1.207606
2006-08-30 06:34:13 51°14.01 2°55.509 18.2403 3.711838 27.270375 1.207606
2006-08-30 06:34:18 51°14.019 2°55.502 18.2193 3.711838 27.270375 1.207606
2006-08-30 06:34:23 51°14.029 2°55.496 18.2227 3.706149 27.237295 1.207606
2006-08-30 06:34:28 51°14.039 2°55.49 18.2298 3.693928 27.150917 1.207606
2006-08-30 06:34:33 51°14.048 2°55.483 18.2077 3.691084 27.138617 1.207606
2006-08-30 06:34:38 51°14.057 2°55.476 18.2227 3.685711 27.106152 1.207606
2006-08-30 06:34:43 51°14.067 2°55.47 18.1918 3.677494 27.050931 1.207606
2006-08-30 06:34:48 51°14.076 2°55.463 18.1917 3.677494 27.050931 1.207606
2006-08-30 06:34:53 51°14.085 2°55.457 18.1887 3.683183 27.106837 1.241315
2006-08-30 06:34:57 51°14.093 2°55.451 18.1814 3.679707 27.08698 1.241315
2006-08-30 06:35:03 51°14.105 2°55.442 18.1906 3.681814 27.107033 1.207606
2006-08-30 06:35:09 51°14.116 2°55.433 18.1935 3.685291 27.140656 1.207606
2006-08-30 06:35:13 51°14.124 2°55.427 18.1827 3.684132 27.135937 1.241315
2006-08-30 06:35:18 51°14.133 2°55.418 18.1809 3.684132 27.135937 1.241315
2006-08-30 06:35:23 51°14.143 2°55.41 18.1836 3.690242 27.194446 1.241315
2006-08-30 06:35:28 51°14.153 2°55.401 18.1805 3.697196 27.256081 1.241315
2006-08-30 06:35:32 51°14.161 2°55.394 18.1581 3.703411 27.312197 1.241315
2006-08-30 06:35:37 51°14.17 2°55.384 18.1588 3.711945 27.384447 1.207606
2006-08-30 06:35:43 51°14.181 2°55.371 18.1624 3.718266 27.437171 1.207606
2006-08-30 06:35:48 51°14.191 2°55.36 18.1446 3.718266 27.437171 1.207606
2006-08-30 06:35:53 51°14.2 2°55.349 18.1344 3.723534 27.483208 1.241315
2006-08-30 06:35:58 51°14.21 2°55.337 18.1384 3.7268 27.514789 1.241315
2006-08-30 06:36:03 51°14.219 2°55.325 18.1399 3.729856 27.542726 1.275024
2006-08-30 06:36:08 51°14.228 2°55.313 18.127 3.73249 27.567701 1.241315
2006-08-30 06:36:13 51°14.237 2°55.3 18.136 3.73407 27.585013 1.241315
2006-08-30 06:36:18 51°14.246 2°55.288 18.1339 3.73407 27.585013 1.241315
2006-08-30 06:36:23 51°14.255 2°55.274 18.1249 3.71616 27.441076 1.241315
2006-08-30 06:36:28 51°14.264 2°55.261 18.1193 3.735756 27.607069 1.241315
2006-08-30 06:36:33 51°14.272 2°55.247 18.1393 3.735545 27.61067 1.241315
2006-08-30 06:36:38 51°14.28 2°55.232 18.1252 3.73544 27.610775 1.241315
2006-08-30 06:36:43 51°14.288 2°55.218 18.1105 3.737863 27.635025 1.241315
2006-08-30 06:36:48 51°14.296 2°55.203 18.131 3.737863 27.635025 1.241315
2006-08-30 06:36:53 51°14.304 2°55.188 18.111 3.739233 27.647723 1.241315
2006-08-30 06:36:57 51°14.31 2°55.176 18.1278 3.741445 27.668314 1.207606
2006-08-30 06:37:03 51°14.319 2°55.158 18.1279 3.74429 27.69556 1.207606
2006-08-30 06:37:08 51°14.327 2°55.142 18.1315 3.747135 27.719409 1.207606
2006-08-30 06:37:13 51°14.335 2°55.127 18.1418 3.750401 27.746723 1.207606
2006-08-30 06:37:18 51°14.344 2°55.111 18.1736 3.750401 27.746723 1.207606
2006-08-30 06:37:23 51°14.352 2°55.097 18.191 3.755669 27.792441 1.207606
2006-08-30 06:37:28 51°14.361 2°55.082 18.1857 3.761885 27.843036 1.207606
2006-08-30 06:37:33 51°14.37 2°55.066 18.1941 3.766732 27.884832 1.207606
2006-08-30 06:37:38 51°14.379 2°55.051 18.2111 3.774529 27.947466 1.207606
2006-08-30 06:37:43 51°14.388 2°55.035 18.1829 3.782431 28.010488 1.140187
2006-08-30 06:37:48 51°14.397 2°55.022 18.2097 3.782431 28.010488 1.140187
2006-08-30 06:37:53 51°14.407 2°55.008 18.2079 3.790649 28.073658 1.207606
2006-08-30 06:37:58 51°14.418 2°54.995 18.2027 3.8054 28.184153 1.207606
2006-08-30 06:38:03 51°14.428 2°54.983 18.1945 3.814356 28.249922 1.173896
2006-08-30 06:38:08 51°14.439 2°54.971 18.2079 3.83701 28.42744 1.173896
2006-08-30 06:38:13 51°14.45 2°54.957 18.2035 3.854291 28.559748 1.173896
2006-08-30 06:38:18 51°14.46 2°54.945 18.2412 3.854291 28.559748 1.173896
2006-08-30 06:38:23 51°14.471 2°54.932 18.2106 3.874522 28.724432 1.207606
2006-08-30 06:38:28 51°14.482 2°54.921 18.2168 3.888326 28.835206 1.207606
2006-08-30 06:38:33 51°14.493 2°54.908 18.2047 3.902552 28.952037 1.207606
2006-08-30 06:38:38 51°14.505 2°54.896 18.1959 3.911088 29.02349 1.207606
2006-08-30 06:38:41 51°14.511 2°54.889 18.2011 3.933744 29.210058 1.207606
2006-08-30 06:38:47 51°14.526 2°54.874 18.1998 3.933744 29.210058 1.207606
2006-08-30 06:38:53 51°14.539 2°54.861 18.2039 3.951449 29.354815 1.241315
2006-08-30 06:38:58 51°14.552 2°54.849 18.1927 3.965359 29.468283 1.207606
2006-08-30 06:39:03 51°14.564 2°54.84 18.1938 3.985488 29.633778 1.207606
2006-08-30 06:39:08 51°14.577 2°54.83 18.1848 4.010781 29.843745 1.207606
2006-08-30 06:39:13 51°14.59 2°54.819 18.1873 4.027644 29.9856 1.207606
2006-08-30 06:39:18 51°14.603 2°54.809 18.2112 4.027644 29.9856 1.207606
2006-08-30 06:39:23 51°14.617 2°54.799 18.1971 4.009833 29.838505 1.241315
2006-08-30 06:39:28 51°14.631 2°54.789 18.1901 4.020372 29.927417 1.241315
2006-08-30 06:39:33 51°14.643 2°54.78 18.2032 4.074756 30.378691 1.241315
2006-08-30 06:39:38 51°14.657 2°54.771 18.1972 4.091514 30.519016 1.241315
2006-08-30 06:39:44 51°14.674 2°54.759 18.2164 4.115018 30.718263 1.241315
2006-08-30 06:39:48 51°14.685 2°54.752 18.2134 4.115018 30.718263 1.241315
2006-08-30 06:39:53 51°14.699 2°54.742 18.2102 4.095625 30.557481 1.241315
2006-08-30 06:39:58 51°14.712 2°54.733 18.2206 4.135361 30.885979 1.241315
2006-08-30 06:40:03 51°14.727 2°54.723 18.2236 4.100684 30.597403 1.241315
2006-08-30 06:40:08 51°14.741 2°54.714 18.229 4.117443 30.737357 1.241315
2006-08-30 06:40:12 51°14.753 2°54.706 18.2223 4.068959 30.33214 1.241315
2006-08-30 06:40:17 51°14.767 2°54.695 18.2382 4.068959 30.33214 1.241315
2006-08-30 06:40:23 51°14.785 2°54.684 18.2329 4.18701 31.311563 1.275024
2006-08-30 06:40:28 51°14.799 2°54.674 18.2482 4.200186 31.417655 1.275024
2006-08-30 06:40:33 51°14.813 2°54.665 18.247 4.215998 31.549105 1.275024
2006-08-30 06:40:38 51°14.827 2°54.654 18.2475 4.23181 31.677296 1.275024
2006-08-30 06:40:43 51°14.842 2°54.643 18.2496 4.249203 31.818755 1.275024
2006-08-30 06:40:48 51°14.856 2°54.633 18.2466 4.249203 31.818755 1.275024
2006-08-30 06:40:53 51°14.87 2°54.622 18.253 4.264594 31.945209 1.275024
2006-08-30 06:40:58 51°14.885 2°54.613 18.2585 4.277244 32.047663 1.308734
2006-08-30 06:41:03 51°14.9 2°54.603 18.2596 4.285994 32.114682 1.241315
2006-08-30 06:41:09 51°14.917 2°54.59 18.2664 4.298749 32.218624 1.241315
2006-08-30 06:41:14 51°14.932 2°54.579 18.2669 4.309924 32.310493 1.207606
2006-08-30 06:41:17 51°14.941 2°54.573 18.2751 4.309924 32.310493 1.207606
2006-08-30 06:41:23 51°14.958 2°54.56 18.2737 4.32405 32.425986 1.207606
2006-08-30 06:41:28 51°14.973 2°54.55 18.2786 4.334382 32.511425 1.207606
2006-08-30 06:41:33 51°14.988 2°54.539 18.2801 4.344608 32.593148 1.207606
2006-08-30 06:41:38 51°15.002 2°54.53 18.2903 4.354307 32.673906 1.241315
2006-08-30 06:41:41 51°15.011 2°54.523 18.2923 4.36253 32.735987 1.241315
2006-08-30 06:41:49 51°15.032 2°54.509 18.2901 4.36253 32.735987 1.241315
2006-08-30 06:41:54 51°15.047 2°54.5 18.2966 4.371491 32.809437 1.207606
2006-08-30 06:41:59 51°15.06 2°54.49 18.2969 4.377712 32.866823 1.173896
2006-08-30 06:42:03 51°15.071 2°54.483 18.2949 4.385829 32.924568 1.173896
2006-08-30 06:42:08 51°15.085 2°54.472 18.2968 4.390468 32.958881 1.173896
2006-08-30 06:42:13 51°15.099 2°54.461 18.3014 4.397532 33.013545 1.140187
2006-08-30 06:42:18 51°15.112 2°54.452 18.3019 4.397532 33.013545 1.140187
2006-08-30 06:42:23 51°15.125 2°54.441 18.2998 4.403963 33.06522 1.173896
2006-08-30 06:42:28 51°15.14 2°54.431 18.3035 4.412503 33.13519 1.173896
2006-08-30 06:42:33 51°15.153 2°54.422 18.3036 4.414717 33.151459 1.106477
2006-08-30 06:42:38 51°15.167 2°54.412 18.3009 4.425893 33.244173 1.140187
2006-08-30 06:42:41 51°15.175 2°54.406 18.3016 4.43264 33.300874 1.140187
2006-08-30 06:42:48 51°15.195 2°54.392 18.3025 4.43264 33.300874 1.140187
2006-08-30 06:42:53 51°15.21 2°54.382 18.3073 4.438334 33.346971 1.140187
2006-08-30 06:42:58 51°15.222 2°54.372 18.3069 4.442446 33.380365 1.106477
2006-08-30 06:43:03 51°15.236 2°54.362 18.3067 4.448877 33.433264 1.106477
2006-08-30 06:43:08 51°15.249 2°54.352 18.3079 4.453516 33.469926 1.140187
2006-08-30 06:43:13 51°15.264 2°54.341 18.3053 4.45805 33.50629 1.106477
2006-08-30 06:43:18 51°15.278 2°54.332 18.3034 4.45805 33.50629 1.106477
2006-08-30 06:43:21 51°15.287 2°54.325 18.3007 4.462478 33.544712 1.106477
2006-08-30 06:43:28 51°15.306 2°54.311 18.3028 4.463427 33.551518 1.140187
2006-08-30 06:43:33 51°15.32 2°54.3 18.2997 4.463849 33.553888 1.140187
2006-08-30 06:43:38 51°15.335 2°54.289 18.3003 4.465746 33.570441 1.140187
2006-08-30 06:43:43 51°15.348 2°54.279 18.2966 4.471967 33.62101 1.106477
2006-08-30 06:43:48 51°15.362 2°54.268 18.2972 4.471967 33.62101 1.106477
2006-08-30 06:43:53 51°15.376 2°54.258 18.2947 4.458788 33.510734 1.140187
2006-08-30 06:43:58 51°15.389 2°54.248 18.2972 4.470913 33.614497 1.106477
2006-08-30 06:44:02 51°15.401 2°54.239 18.2995 4.47998 33.691988 1.106477
2006-08-30 06:44:08 51°15.417 2°54.225 18.2949 4.47745 33.67187 1.106477
2006-08-30 06:44:13 51°15.431 2°54.215 18.2993 4.425154 33.230395 1.106477
2006-08-30 06:44:18 51°15.445 2°54.204 18.2972 4.425154 33.230395 1.106477
2006-08-30 06:44:23 51°15.459 2°54.193 18.2978 4.481246 33.703821 1.106477
2006-08-30 06:44:28 51°15.473 2°54.182 18.2948 4.486834 33.752644 1.072768
2006-08-30 06:44:33 51°15.488 2°54.172 18.2982 4.486834 33.752052 1.072768
2006-08-30 06:44:37 51°15.499 2°54.164 18.301 4.48483 33.734592 1.072768
2006-08-30 06:44:43 51°15.517 2°54.152 18.3006 4.492949 33.805923 1.072768
2006-08-30 06:44:49 51°15.533 2°54.139 18.2996 4.492949 33.805923 1.072768
2006-08-30 06:44:52 51°15.542 2°54.134 18.2993 4.489681 33.777802 1.106477
2006-08-30 06:44:57 51°15.557 2°54.122 18.3007 4.486412 33.749685 1.039059
2006-08-30 06:45:03 51°15.573 2°54.11 18.2967 4.489048 33.773066 1.072768
2006-08-30 06:45:08 51°15.588 2°54.098 18.3 4.495374 33.826943 1.039059
2006-08-30 06:45:13 51°15.601 2°54.088 18.2996 4.497272 33.84115 1.039059
2006-08-30 06:45:19 51°15.618 2°54.074 18.2992 4.497272 33.84115 1.039059
2006-08-30 06:45:23 51°15.628 2°54.066 18.3042 4.501701 33.880835 1.072768
2006-08-30 06:45:28 51°15.642 2°54.056 18.3021 4.496112 33.830786 1.039059
2006-08-30 06:45:33 51°15.656 2°54.044 18.301 4.505496 33.908655 1.072768
2006-08-30 06:45:38 51°15.669 2°54.034 18.3002 4.496429 33.834044 1.072768
2006-08-30 06:45:43 51°15.684 2°54.023 18.3016 4.50518 33.907775 1.039059
2006-08-30 06:45:48 51°15.697 2°54.013 18.3015 4.50518 33.907775 1.039059
2006-08-30 06:45:53 51°15.712 2°54.001 18.3024 4.50518 33.906585 1.039059
2006-08-30 06:45:58 51°15.726 2°53.991 18.3026 4.503282 33.890593 1.039059
2006-08-30 06:46:03 51°15.74 2°53.98 18.3018 4.500857 33.868973 1.039059
2006-08-30 06:46:08 51°15.754 2°53.97 18.3057 4.500224 33.86305 1.039059
2006-08-30 06:46:13 51°15.767 2°53.96 18.3053 4.499592 33.858909 1.072768
2006-08-30 06:46:17 51°15.779 2°53.952 18.3039 4.499592 33.858909 1.072768
2006-08-30 06:46:24 51°15.799 2°53.939 18.3052 4.498116 33.845286 1.072768
2006-08-30 06:46:28 51°15.811 2°53.931 18.3077 4.496323 33.83375 1.072768
2006-08-30 06:46:33 51°15.824 2°53.922 18.3091 4.495374 33.822196 1.072768
2006-08-30 06:46:38 51°15.84 2°53.912 18.3101 4.484725 33.732521 1.072768
2006-08-30 06:46:43 51°15.853 2°53.904 18.3096 4.492738 33.799995 1.039059
2006-08-30 06:46:48 51°15.868 2°53.893 18.31 4.492738 33.799995 1.039059
2006-08-30 06:46:53 51°15.882 2°53.884 18.3112 4.491157 33.786676 1.039059
2006-08-30 06:46:58 51°15.897 2°53.875 18.3124 4.491473 33.786377 1.106477
2006-08-30 06:47:03 51°15.912 2°53.864 18.3082 4.488521 33.761519 1.072768
2006-08-30 06:47:08 51°15.926 2°53.855 18.3106 4.490313 33.776018 1.072768
2006-08-30 06:47:13 51°15.941 2°53.845 18.3118 4.486307 33.742285 1.072768
2006-08-30 06:47:18 51°15.956 2°53.835 18.311 4.486307 33.742285 1.072768
2006-08-30 06:47:23 51°15.97 2°53.827 18.3105 4.480718 33.694654 1.072768
2006-08-30 06:47:29 51°15.987 2°53.814 18.3121 4.48346 33.71832 1.106477
2006-08-30 06:47:33 51°15.998 2°53.807 18.3119 4.482089 33.704417 1.106477
2006-08-30 06:47:38 51°16.013 2°53.797 18.3126 4.482616 33.708264 1.072768
2006-08-30 06:47:43 51°16.028 2°53.787 18.3162 4.479875 33.683419 1.106477
2006-08-30 06:47:48 51°16.041 2°53.778 18.3152 4.479875 33.683419 1.106477
2006-08-30 06:47:53 51°16.056 2°53.769 18.3178 4.468488 33.589969 1.106477
2006-08-30 06:47:57 51°16.068 2°53.763 18.3181 4.477766 33.668626 1.106477
2006-08-30 06:48:03 51°16.084 2°53.754 18.3149 4.47397 33.636096 1.072768
2006-08-30 06:48:08 51°16.1 2°53.746 18.3178 4.476079 33.652659 1.106477
2006-08-30 06:48:13 51°16.114 2°53.737 18.3183 4.475341 33.645269 1.106477
2006-08-30 06:48:19 51°16.131 2°53.728 18.3185 4.475341 33.645269 1.106477
2006-08-30 06:48:23 51°16.143 2°53.72 18.3176 4.473232 33.627527 1.106477
2006-08-30 06:48:28 51°16.157 2°53.713 18.3189 4.463005 33.539734 1.106477
2006-08-30 06:48:33 51°16.173 2°53.703 18.3181 4.470385 33.601221 1.106477
2006-08-30 06:48:37 51°16.184 2°53.697 18.3181 4.470702 33.604471 1.140187
2006-08-30 06:48:43 51°16.203 2°53.687 18.3196 4.469647 33.595012 1.106477
2006-08-30 06:48:48 51°16.217 2°53.679 18.321 4.469647 33.595012 1.106477
2006-08-30 06:48:53 51°16.231 2°53.671 18.3234 4.464586 33.551858 1.140187
2006-08-30 06:48:58 51°16.246 2°53.664 18.3243 4.467328 33.575502 1.106477
2006-08-30 06:49:02 51°16.259 2°53.658 18.3231 4.460474 33.516105 1.106477
2006-08-30 06:49:08 51°16.276 2°53.65 18.3248 4.467539 33.578453 1.106477
2006-08-30 06:49:13 51°16.292 2°53.642 18.3231 4.468277 33.581717 1.072768
2006-08-30 06:49:17 51°16.303 2°53.635 18.3234 4.468277 33.581717 1.072768
2006-08-30 06:49:23 51°16.321 2°53.625 18.3235 4.459631 33.508425 1.106477
2006-08-30 06:49:28 51°16.336 2°53.617 18.3263 4.465324 33.555712 1.072768
2006-08-30 06:49:33 51°16.351 2°53.61 18.3252 4.465008 33.550699 1.106477
2006-08-30 06:49:39 51°16.369 2°53.6 18.3264 4.467117 33.568431 1.072768
2006-08-30 06:49:43 51°16.381 2°53.594 18.3267 4.46427 33.544493 1.106477
2006-08-30 06:49:49 51°16.4 2°53.586 18.3289 4.46427 33.544493 1.106477
2006-08-30 06:49:53 51°16.412 2°53.581 18.3322 4.467222 33.568141 1.106477
2006-08-30 06:49:58 51°16.427 2°53.573 18.328 4.463321 33.537102 1.106477
2006-08-30 06:50:03 51°16.44 2°53.566 18.327 4.465852 33.559557 1.106477
2006-08-30 06:50:08 51°16.455 2°53.558 18.3297 4.464797 33.547161 1.106477
2006-08-30 06:50:13 51°16.47 2°53.55 18.3279 4.467011 33.566956 1.106477
2006-08-30 06:50:18 51°16.482 2°53.544 18.3293 4.467011 33.566956 1.106477
2006-08-30 06:50:24 51°16.501 2°53.535 18.333 4.463954 33.540069 1.106477
2006-08-30 06:50:28 51°16.512 2°53.529 18.3323 4.466273 33.55722 1.140187
2006-08-30 06:50:33 51°16.525 2°53.521 18.3297 4.463848 33.535656 1.140187
2006-08-30 06:50:38 51°16.54 2°53.513 18.3295 4.461423 33.517032 1.106477
2006-08-30 06:50:43 51°16.554 2°53.506 18.3299 4.45689 33.478922 1.072768
2006-08-30 06:50:48 51°16.569 2°53.499 18.3306 4.45689 33.478922 1.072768
2006-08-30 06:50:52 51°16.58 2°53.493 18.3314 4.459631 33.502552 1.106477
2006-08-30 06:50:59 51°16.602 2°53.486 18.3319 4.466168 33.55751 1.106477
2006-08-30 06:51:04 51°16.616 2°53.48 18.3351 4.465852 33.552498 1.106477
2006-08-30 06:51:07 51°16.624 2°53.477 18.3331 4.466062 33.554271 1.106477
2006-08-30 06:51:13 51°16.643 2°53.469 18.3343 4.466168 33.554569 1.106477
2006-08-30 06:51:18 51°16.656 2°53.464 18.3338 4.466168 33.554569 1.106477
2006-08-30 06:51:23 51°16.671 2°53.459 18.3341 4.466484 33.559581 1.106477
2006-08-30 06:51:28 51°16.687 2°53.453 18.3376 4.458155 33.491318 1.106477
2006-08-30 06:51:33 51°16.701 2°53.447 18.3354 4.466379 33.557518 1.106477
2006-08-30 06:51:39 51°16.719 2°53.442 18.3341 4.463426 33.530347 1.140187
2006-08-30 06:51:43 51°16.731 2°53.437 18.3322 4.4668 33.558711 1.140187
2006-08-30 06:51:48 51°16.744 2°53.431 18.3314 4.4668 33.558711 1.140187
2006-08-30 06:51:53 51°16.76 2°53.424 18.3297 4.465535 33.547486 1.106477
2006-08-30 06:51:58 51°16.775 2°53.418 18.3308 4.46543 33.5466 1.106477
2006-08-30 06:52:01 51°16.784 2°53.415 18.3311 4.46543 33.546012 1.106477
2006-08-30 06:52:08 51°16.805 2°53.407 18.3334 4.466062 33.550742 1.072768
2006-08-30 06:52:14 51°16.822 2°53.401 18.3333 4.465219 33.547179 1.106477
2006-08-30 06:52:19 51°16.836 2°53.396 18.3357 4.465219 33.547179 1.106477
2006-08-30 06:52:23 51°16.848 2°53.392 18.3374 4.466273 33.554279 1.072768
2006-08-30 06:52:28 51°16.864 2°53.387 18.3354 4.464797 33.547749 1.106477
2006-08-30 06:52:33 51°16.879 2°53.382 18.334 4.468171 33.570236 1.072768
2006-08-30 06:52:38 51°16.894 2°53.377 18.3318 4.468804 33.576143 1.072768
2006-08-30 06:52:43 51°16.908 2°53.373 18.3343 4.470174 33.586491 1.072768
2006-08-30 06:52:48 51°16.924 2°53.369 18.3324 4.470174 33.586491 1.072768
2006-08-30 06:52:53 51°16.939 2°53.364 18.3322 4.470596 33.590037 1.106477
2006-08-30 06:52:58 51°16.954 2°53.36 18.3318 4.471229 33.594179 1.106477
2006-08-30 06:53:03 51°16.97 2°53.357 18.3315 4.473865 33.615166 1.106477
2006-08-30 06:53:08 51°16.986 2°53.352 18.3326 4.473232 33.612791 1.106477
2006-08-30 06:53:13 51°17.001 2°53.348 18.3357 4.474919 33.626389 1.106477
2006-08-30 06:53:18 51°17.016 2°53.344 18.3365 4.474919 33.626389 1.106477
2006-08-30 06:53:23 51°17.033 2°53.339 18.3346 4.476184 33.63644 1.106477
2006-08-30 06:53:28 51°17.048 2°53.334 18.3346 4.477239 33.647077 1.072768
2006-08-30 06:53:32 51°17.061 2°53.331 18.3369 4.478926 33.660677 1.072768
2006-08-30 06:53:37 51°17.077 2°53.326 18.3369 4.47998 33.670726 1.039059
2006-08-30 06:53:43 51°17.096 2°53.322 18.3368 4.481034 33.679005 1.039059
2006-08-30 06:53:48 51°17.113 2°53.318 18.3402 4.481034 33.679005 1.039059
2006-08-30 06:53:53 51°17.127 2°53.315 18.341 4.481351 33.679895 1.039059
2006-08-30 06:53:58 51°17.143 2°53.31 18.3446 4.482932 33.692608 1.039059
2006-08-30 06:54:03 51°17.16 2°53.305 18.3455 4.484197 33.703843 1.072768
2006-08-30 06:54:08 51°17.174 2°53.301 18.3487 4.484725 33.705324 1.072768
2006-08-30 06:54:13 51°17.192 2°53.299 18.3475 4.486412 33.718925 1.039059
2006-08-30 06:54:18 51°17.206 2°53.296 18.3552 4.486412 33.718925 1.039059
2006-08-30 06:54:23 51°17.222 2°53.293 18.3592 4.486728 33.72395 1.039059
2006-08-30 06:54:28 51°17.239 2°53.291 18.3595 4.487255 33.727203 1.005349
2006-08-30 06:54:33 51°17.255 2°53.289 18.3604 4.487993 33.731639 1.005349
2006-08-30 06:54:38 51°17.271 2°53.287 18.3618 4.488415 33.732231 1.039059
2006-08-30 06:54:43 51°17.287 2°53.286 18.3663 4.489575 33.740215 1.005349
2006-08-30 06:54:47 51°17.301 2°53.284 18.3682 4.489575 33.740215 1.005349
2006-08-30 06:54:53 51°17.32 2°53.282 18.3717 4.490102 33.742876 1.005349
2006-08-30 06:54:59 51°17.341 2°53.282 18.3723 4.491261 33.749675 1.039059
2006-08-30 06:55:03 51°17.354 2°53.28 18.374 4.493581 33.767413 1.005349
2006-08-30 06:55:08 51°17.369 2°53.279 18.3752 4.494319 33.770664 1.039059
2006-08-30 06:55:13 51°17.386 2°53.277 18.3777 4.496639 33.787808 1.005349
2006-08-30 06:55:18 51°17.402 2°53.277 18.3788 4.496639 33.787808 1.005349
2006-08-30 06:55:23 51°17.42 2°53.277 18.3805 4.498958 33.804952 1.005349
2006-08-30 06:55:28 51°17.434 2°53.277 18.3831 4.500434 33.816184 1.005349
2006-08-30 06:55:33 51°17.45 2°53.277 18.3865 4.501278 33.817357 0.97164
2006-08-30 06:55:38 51°17.465 2°53.28 18.3876 4.505074 33.85047 0.93793
2006-08-30 06:55:43 51°17.483 2°53.284 18.3882 4.507077 33.867322 0.97164
2006-08-30 06:55:49 51°17.499 2°53.287 18.3887 4.507077 33.867322 0.97164
2006-08-30 06:55:54 51°17.515 2°53.293 18.3869 4.506339 33.858149 1.005349
2006-08-30 06:55:59 51°17.531 2°53.299 18.3908 4.507815 33.868194 0.97164
2006-08-30 06:56:03 51°17.543 2°53.303 18.3885 4.512349 33.90396 1.005349
2006-08-30 06:56:08 51°17.558 2°53.307 18.3862 4.51393 33.916671 0.93793
2006-08-30 06:56:13 51°17.573 2°53.312 18.3871 4.515301 33.925233 0.93793
2006-08-30 06:56:18 51°17.588 2°53.316 18.3873 4.515301 33.925233 0.93793
2006-08-30 06:56:23 51°17.603 2°53.321 18.3857 4.516039 33.930255 0.93793
2006-08-30 06:56:28 51°17.62 2°53.328 18.3851 4.517832 33.945928 0.93793
2006-08-30 06:56:33 51°17.635 2°53.333 18.386 4.519308 33.958348 0.93793
2006-08-30 06:56:38 51°17.65 2°53.337 18.3856 4.521311 33.974014 0.97164
2006-08-30 06:56:43 51°17.665 2°53.342 18.3883 4.522365 33.982291 0.93793
2006-08-30 06:56:48 51°17.682 2°53.349 18.3887 4.522365 33.982291 0.93793
2006-08-30 06:56:53 51°17.698 2°53.354 18.3869 4.52342 33.990568 0.93793
2006-08-30 06:56:58 51°17.714 2°53.36 18.3844 4.524053 33.998272 0.93793
2006-08-30 06:57:03 51°17.729 2°53.364 18.3842 4.522998 33.991184 0.93793
2006-08-30 06:57:08 51°17.745 2°53.372 18.3834 4.525529 34.010099 0.904221
2006-08-30 06:57:14 51°17.763 2°53.376 18.3841 4.525318 34.011897 0.904221
2006-08-30 06:57:19 51°17.778 2°53.382 18.386 4.525318 34.011897 0.904221
2006-08-30 06:57:23 51°17.79 2°53.387 18.3865 4.526689 34.01986 0.904221
2006-08-30 06:57:28 51°17.806 2°53.394 18.3849 4.524896 34.002989 0.904221
2006-08-30 06:57:33 51°17.821 2°53.4 18.3882 4.52827 34.032575 0.870512
2006-08-30 06:57:38 51°17.836 2°53.404 18.3882 4.527954 34.029317 0.870512
2006-08-30 06:57:43 51°17.853 2°53.41 18.3888 4.529746 34.047383 0.870512
2006-08-30 06:57:48 51°17.868 2°53.413 18.3896 4.529746 34.047383 0.870512
2006-08-30 06:57:53 51°17.883 2°53.419 18.3901 4.53059 34.053887 0.836802
2006-08-30 06:57:58 51°17.899 2°53.424 18.3911 4.532172 34.06899 0.836802
2006-08-30 06:58:03 51°17.915 2°53.428 18.3945 4.532699 34.071042 0.870512
2006-08-30 06:58:08 51°17.931 2°53.432 18.3933 4.532804 34.072526 0.870512
2006-08-30 06:58:13 51°17.946 2°53.436 18.3951 4.53428 34.083759 0.870512
2006-08-30 06:58:18 51°17.963 2°53.441 18.3967 4.53428 34.083759 0.870512
2006-08-30 06:58:23 51°17.979 2°53.445 18.3946 4.536495 34.101206 0.904221
2006-08-30 06:58:28 51°17.994 2°53.449 18.3965 4.536073 34.097059 0.870512
2006-08-30 06:58:34 51°18.013 2°53.456 18.3953 4.537127 34.104144 0.870512
2006-08-30 06:58:37 51°18.023 2°53.459 18.3952 4.537549 34.106501 0.836802
2006-08-30 06:58:43 51°18.042 2°53.463 18.3949 4.537865 34.108567 0.870512
2006-08-30 06:58:48 51°18.058 2°53.467 18.3949 4.537865 34.108567 0.870512
2006-08-30 06:58:53 51°18.075 2°53.473 18.3951 4.537865 34.106776 0.904221
2006-08-30 06:58:58 51°18.091 2°53.477 18.3964 4.537443 34.103225 0.870512
2006-08-30 06:59:03 51°18.108 2°53.482 18.3955 4.537443 34.102629 0.870512
2006-08-30 06:59:08 51°18.124 2°53.486 18.398 4.535967 34.090204 0.870512
2006-08-30 06:59:12 51°18.136 2°53.491 18.3965 4.536811 34.0979 0.870512
2006-08-30 06:59:18 51°18.154 2°53.494 18.3989 4.536811 34.0979 0.870512
2006-08-30 06:59:24 51°18.173 2°53.502 18.3969 4.536389 34.093754 0.870512
2006-08-30 06:59:28 51°18.186 2°53.505 18.3994 4.535018 34.088183 0.870512
2006-08-30 06:59:34 51°18.205 2°53.511 18.3986 4.535018 34.08162 0.870512
2006-08-30 06:59:38 51°18.216 2°53.513 18.3983 4.534702 34.078361 0.904221
2006-08-30 06:59:43 51°18.233 2°53.518 18.3977 4.534386 34.077488 0.904221
2006-08-30 06:59:47 51°18.246 2°53.519 18.4021 4.534386 34.077488 0.904221
2006-08-30 06:59:53 51°18.264 2°53.523 18.3985 4.532593 34.06121 0.904221
2006-08-30 06:59:58 51°18.279 2°53.526 18.3997 4.535651 34.083962 0.870512
2006-08-30 07:00:04 51°18.298 2°53.53 18.4014 4.530906 34.045821 0.870512
2006-08-30 07:00:09 51°18.314 2°53.533 18.3994 4.530168 34.039611 0.870512
2006-08-30 07:00:13 51°18.326 2°53.535 18.4006 4.529641 34.036366 0.870512
2006-08-30 07:00:18 51°18.34 2°53.539 18.4041 4.529641 34.036366 0.870512
2006-08-30 07:00:24 51°18.36 2°53.542 18.403 4.527848 34.018307 0.870512
2006-08-30 07:00:28 51°18.372 2°53.545 18.4026 4.526056 34.006202 0.870512
2006-08-30 07:00:34 51°18.39 2°53.546 18.4019 4.524474 33.988732 0.836802
2006-08-30 07:00:38 51°18.403 2°53.545 18.403 4.523314 33.980165 0.836802
2006-08-30 07:00:42 51°18.415 2°53.545 18.4023 4.5211 33.960945 0.870512
2006-08-30 07:00:48 51°18.434 2°53.542 18.4024 4.5211 33.960945 0.870512
2006-08-30 07:00:52 51°18.447 2°53.539 18.4017 4.519413 33.946162 0.870512
2006-08-30 07:00:58 51°18.464 2°53.533 18.4026 4.516671 33.922514 0.870512
2006-08-30 07:01:03 51°18.479 2°53.528 18.4045 4.514984 33.910107 0.836802
2006-08-30 07:01:09 51°18.499 2°53.52 18.4015 4.512876 33.890596 0.870512
2006-08-30 07:01:14 51°18.51 2°53.514 18.4028 4.509502 33.868154 0.836802
2006-08-30 07:01:19 51°18.525 2°53.507 18.4044 4.509502 33.868154 0.836802
2006-08-30 07:01:24 51°18.54 2°53.499 18.4052 4.509291 33.860456 0.836802
2006-08-30 07:01:28 51°18.55 2°53.492 18.4043 4.507393 33.844501 0.836802
2006-08-30 07:01:33 51°18.561 2°53.483 18.4029 4.506866 33.840661 0.836802
2006-08-30 07:01:39 51°18.578 2°53.472 18.4043 4.505389 33.826477 0.870512
2006-08-30 07:01:42 51°18.586 2°53.466 18.4026 4.50423 33.817912 0.803093
2006-08-30 07:01:48 51°18.602 2°53.454 18.4015 4.50423 33.817912 0.803093
2006-08-30 07:01:53 51°18.616 2°53.443 18.4031 4.503808 33.813775 0.803093
2006-08-30 07:01:58 51°18.629 2°53.433 18.402 4.502437 33.800481 0.803093
2006-08-30 07:02:03 51°18.644 2°53.421 18.4022 4.503492 33.809342 0.836802
2006-08-30 07:02:08 51°18.657 2°53.41 18.4069 4.501277 33.791916 0.769383
2006-08-30 07:02:13 51°18.672 2°53.4 18.4047 4.501277 33.791916 0.803093
2006-08-30 07:02:18 51°18.687 2°53.389 18.4054 4.501277 33.791916 0.803093
2006-08-30 07:02:23 51°18.701 2°53.378 18.4051 4.500645 33.787782 0.803093
2006-08-30 07:02:28 51°18.715 2°53.367 18.4067 4.500645 33.787782 0.836802
2006-08-30 07:02:33 51°18.729 2°53.355 18.409 4.500856 33.788372 0.769383
2006-08-30 07:02:38 51°18.743 2°53.345 18.408 4.500223 33.783055 0.803093
2006-08-30 07:02:44 51°18.761 2°53.332 18.4095 4.499063 33.771536 0.803093
2006-08-30 07:02:48 51°18.773 2°53.323 18.4088 4.499063 33.771536 0.803093
2006-08-30 07:02:53 51°18.786 2°53.313 18.4092 4.499169 33.772422 0.769383
2006-08-30 07:02:58 51°18.801 2°53.303 18.4086 4.498641 33.767401 0.769383
2006-08-30 07:03:03 51°18.814 2°53.292 18.4115 4.498325 33.764153 0.769383
2006-08-30 07:03:08 51°18.829 2°53.281 18.4105 4.498325 33.763562 0.803093
2006-08-30 07:03:13 51°18.843 2°53.27 18.411 4.49843 33.763858 0.803093
2006-08-30 07:03:18 51°18.858 2°53.26 18.4102 4.49843 33.763858 0.803093
2006-08-30 07:03:23 51°18.872 2°53.249 18.4106 4.498852 33.766811 0.803093
2006-08-30 07:03:28 51°18.887 2°53.238 18.4114 4.49843 33.763858 0.769383
2006-08-30 07:03:33 51°18.901 2°53.228 18.4127 4.498747 33.765925 0.769383
2006-08-30 07:03:39 51°18.917 2°53.219 18.4122 4.500645 33.780099 0.769383
2006-08-30 07:03:44 51°18.93 2°53.211 18.4143 4.498747 33.765925 0.803093
2006-08-30 07:03:49 51°18.939 2°53.205 18.4173 4.498747 33.765925 0.803093
2006-08-30 07:03:53 51°18.947 2°53.199 18.4142 4.502964 33.798408 0.769383
2006-08-30 07:03:58 51°18.956 2°53.192 18.4147 4.500012 33.774784 0.769383
2006-08-30 07:04:03 51°18.966 2°53.185 18.4145 4.500539 33.778622 0.769383
2006-08-30 07:04:08 51°18.974 2°53.179 18.4174 4.501066 33.782461 0.803093
2006-08-30 07:04:13 51°18.981 2°53.174 18.4182 4.501699 33.786595 0.769383
2006-08-30 07:04:18 51°18.989 2°53.169 18.4195 4.501699 33.786595 0.769383
2006-08-30 07:04:23 51°18.996 2°53.164 18.4209 4.503175 33.798997 0.803093
2006-08-30 07:04:28 51°19.002 2°53.159 18.4204 4.503281 33.799883 0.769383
2006-08-30 07:04:33 51°19.008 2°53.156 18.4224 4.504757 33.811695 0.803093
2006-08-30 07:04:38 51°19.014 2°53.152 18.4241 4.506655 33.827644 0.769383
2006-08-30 07:04:44 51°19.019 2°53.148 18.4227 4.507393 33.832071 0.769383
2006-08-30 07:04:48 51°19.022 2°53.146 18.4259 4.507393 33.832071 0.769383
2006-08-30 07:04:53 51°19.026 2°53.144 18.4226 4.507498 33.832365 0.803093
2006-08-30 07:04:58 51°19.03 2°53.141 18.4268 4.508025 33.836204 0.769383
2006-08-30 07:05:03 51°19.034 2°53.139 18.4235 4.508869 33.841516 0.735674
2006-08-30 07:05:08 51°19.038 2°53.137 18.4235 4.509185 33.842991 0.735674
2006-08-30 07:05:13 51°19.041 2°53.136 18.4227 4.510028 33.850671 0.769383
2006-08-30 07:05:18 51°19.043 2°53.135 18.4232 4.510028 33.850671 0.769383
2006-08-30 07:05:23 51°19.046 2°53.134 18.4241 4.510134 33.850373 0.769383
2006-08-30 07:05:28 51°19.049 2°53.133 18.4243 4.510661 33.854211 0.735674
2006-08-30 07:05:33 51°19.052 2°53.132 18.4249 4.511083 33.857755 0.735674
2006-08-30 07:05:39 51°19.056 2°53.132 18.4257 4.511399 33.858637 0.735674
2006-08-30 07:05:42 51°19.058 2°53.13 18.4257 4.511715 33.862479 0.735674
2006-08-30 07:05:48 51°19.062 2°53.13 18.4257 4.511715 33.862479 0.735674
2006-08-30 07:05:53 51°19.065 2°53.129 18.4271 4.512875 33.871041 0.735674
2006-08-30 07:05:58 51°19.068 2°53.127 18.4268 4.512664 33.869861 0.735674
2006-08-30 07:06:03 51°19.072 2°53.126 18.428 4.513297 33.875177 0.735674
2006-08-30 07:06:08 51°19.075 2°53.124 18.4296 4.513297 33.873993 0.735674
2006-08-30 07:06:13 51°19.077 2°53.122 18.4298 4.513719 33.878129 0.701965
2006-08-30 07:06:18 51°19.08 2°53.121 18.4293 4.513719 33.878129 0.701965
2006-08-30 07:06:23 51°19.083 2°53.119 18.4301 4.513824 33.87783 0.735674
2006-08-30 07:06:28 51°19.086 2°53.117 18.4324 4.513508 33.875765 0.735674
2006-08-30 07:06:34 51°19.089 2°53.115 18.4344 4.514351 33.882261 0.735674
2006-08-30 07:06:38 51°19.09 2°53.113 18.4336 4.514457 33.882554 0.701965
2006-08-30 07:06:43 51°19.093 2°53.111 18.4333 4.514457 33.881369 0.735674
2006-08-30 07:06:49 51°19.096 2°53.108 18.4334 4.514457 33.881369 0.735674
2006-08-30 07:06:53 51°19.098 2°53.106 18.4363 4.514668 33.883141 0.735674
2006-08-30 07:06:58 51°19.1 2°53.104 18.4357 4.514984 33.885207 0.769383
2006-08-30 07:07:03 51°19.103 2°53.101 18.4363 4.515406 33.886974 0.735674
2006-08-30 07:07:08 51°19.105 2°53.097 18.4354 4.515511 33.886675 0.735674
2006-08-30 07:07:13 51°19.107 2°53.094 18.4358 4.515511 33.887267 0.735674
2006-08-30 07:07:18 51°19.109 2°53.091 18.4355 4.515511 33.887267 0.735674
2006-08-30 07:07:23 51°19.112 2°53.087 18.4354 4.515722 33.888447 0.769383
2006-08-30 07:07:28 51°19.114 2°53.083 18.4365 4.515827 33.888148 0.735674
2006-08-30 07:07:33 51°19.117 2°53.08 18.4379 4.516249 33.890507 0.701965
2006-08-30 07:07:38 51°19.119 2°53.077 18.4379 4.516566 33.893757 0.701965
2006-08-30 07:07:43 51°19.121 2°53.074 18.4373 4.516144 33.890214 0.735674
2006-08-30 07:07:49 51°19.124 2°53.071 18.4388 4.516144 33.890214 0.735674
2006-08-30 07:07:53 51°19.125 2°53.07 18.4381 4.516566 33.893165 0.735674
2006-08-30 07:07:58 51°19.127 2°53.069 18.4436 4.515933 33.890219 0.735674
2006-08-30 07:08:03 51°19.129 2°53.067 18.4432 4.516776 33.894937 0.735674
2006-08-30 07:08:08 51°19.13 2°53.065 18.442 4.517198 33.894333 0.836802
2006-08-30 07:08:13 51°19.132 2°53.065 18.4433 4.517303 33.893442 0.769383
2006-08-30 07:08:18 51°19.132 2°53.066 18.441 4.517303 33.893442 0.769383
2006-08-30 07:08:23 51°19.133 2°53.066 18.4424 4.518147 33.898159 0.769383
2006-08-30 07:08:28 51°19.134 2°53.067 18.4413 4.517093 33.889894 0.769383
2006-08-30 07:08:31 51°19.134 2°53.067 18.4465 4.516776 33.88546 0.769383
2006-08-30 07:08:38 51°19.134 2°53.068 18.4404 4.515933 33.876008 0.735674
2006-08-30 07:08:43 51°19.134 2°53.07 18.4442 4.515405 33.872172 0.769383
2006-08-30 07:08:48 51°19.134 2°53.071 18.4412 4.515405 33.872172 0.769383
2006-08-30 07:08:53 51°19.134 2°53.071 18.4432 4.515406 33.873947 0.769383
2006-08-30 07:08:58 51°19.134 2°53.073 18.4464 4.515405 33.869805 0.769383
2006-08-30 07:09:03 51°19.134 2°53.074 18.4477 4.515722 33.874828 0.769383
2006-08-30 07:09:08 51°19.134 2°53.076 18.4437 4.514878 33.867152 0.769383
2006-08-30 07:09:14 51°19.135 2°53.077 18.4449 4.514984 33.868038 0.769383
2006-08-30 07:09:18 51°19.135 2°53.079 18.4427 4.514984 33.868038 0.769383
2006-08-30 07:09:24 51°19.134 2°53.081 18.4441 4.515089 33.870107 0.769383
2006-08-30 07:09:29 51°19.134 2°53.082 18.4454 4.515511 33.871874 0.735674
2006-08-30 07:09:34 51°19.133 2°53.083 18.4439 4.515511 33.871874 0.735674
2006-08-30 07:09:38 51°19.133 2°53.084 18.4436 4.514457 33.863018 0.769383
2006-08-30 07:09:42 51°19.133 2°53.087 18.4436 4.515405 33.869805 0.769383
2006-08-30 07:09:47 51°19.132 2°53.089 18.4399 4.515405 33.869805 0.769383
2006-08-30 07:09:54 51°19.131 2°53.09 18.4383 4.515089 33.867148 0.769383
2006-08-30 07:09:58 51°19.131 2°53.09 18.443 4.5153 33.870103 0.769383
2006-08-30 07:10:03 51°19.13 2°53.092 18.4426 4.515195 33.868034 0.803093
2006-08-30 07:10:08 51°19.13 2°53.093 18.4408 4.514878 33.867744 0.769383
2006-08-30 07:10:13 51°19.129 2°53.094 18.4434 4.514984 33.866263 0.769383
2006-08-30 07:10:18 51°19.128 2°53.095 18.4409 4.514984 33.866263 0.769383
2006-08-30 07:10:23 51°19.128 2°53.096 18.4417 4.515195 33.868625 0.769383
2006-08-30 07:10:28 51°19.128 2°53.096 18.4413 4.515089 33.868923 0.735674
2006-08-30 07:10:33 51°19.127 2°53.098 18.4377 4.515089 33.870699 0.769383
2006-08-30 07:10:38 51°19.126 2°53.099 18.4379 4.5153 33.870694 0.769383
2006-08-30 07:10:43 51°19.125 2°53.1 18.4364 4.515405 33.870396 0.735674
2006-08-30 07:10:48 51°19.125 2°53.101 18.4364 4.515405 33.870396 0.735674
2006-08-30 07:10:53 51°19.124 2°53.102 18.4363 4.515616 33.872167 0.769383
2006-08-30 07:10:58 51°19.124 2°53.103 18.4356 4.515722 33.873053 0.769383
2006-08-30 07:11:03 51°19.123 2°53.105 18.4341 4.5153 33.867144 0.769383
2006-08-30 07:11:08 51°19.123 2°53.106 18.4348 4.515933 33.8766 0.769383
2006-08-30 07:11:13 51°19.123 2°53.107 18.4349 4.517092 33.885157 0.769383
2006-08-30 07:11:18 51°19.122 2°53.109 18.4347 4.517092 33.885157 0.769383
2006-08-30 07:11:23 51°19.122 2°53.109 18.4372 4.514667 33.866564 0.735674
2006-08-30 07:11:28 51°19.121 2°53.111 18.4387 4.514773 33.869817 0.769383
2006-08-30 07:11:33 51°19.121 2°53.112 18.4404 4.515827 33.878674 0.769383
2006-08-30 07:11:38 51°19.12 2°53.113 18.4416 4.514351 33.870418 0.735674
2006-08-30 07:11:43 51°19.12 2°53.114 18.4414 4.514984 33.87218 0.735674
2006-08-30 07:11:48 51°19.119 2°53.115 18.4418 4.514984 33.87218 0.735674
2006-08-30 07:11:53 51°19.119 2°53.117 18.4404 4.515089 33.873658 0.735674
2006-08-30 07:11:58 51°19.118 2°53.118 18.4389 4.515406 33.876315 0.735674
2006-08-30 07:12:02 51°19.118 2°53.118 18.4402 4.515722 33.877196 0.735674
2006-08-30 07:12:09 51°19.117 2°53.12 18.4367 4.516144 33.879555 0.735674
2006-08-30 07:12:13 51°19.117 2°53.121 18.4376 4.516354 33.880142 0.769383
2006-08-30 07:12:18 51°19.117 2°53.121 18.4368 4.516354 33.880142 0.769383
2006-08-30 07:12:23 51°19.116 2°53.123 18.4366 4.516671 33.882207 0.735674
2006-08-30 07:12:28 51°19.115 2°53.124 18.4363 4.517303 33.88752 0.769383
2006-08-30 07:12:33 51°19.116 2°53.125 18.4353 4.517514 33.889884 0.769383
2006-08-30 07:12:38 51°19.115 2°53.126 18.4366 4.517303 33.88752 0.701965
2006-08-30 07:12:42 51°19.115 2°53.127 18.4384 4.517409 33.890774 0.769383
2006-08-30 07:12:48 51°19.114 2°53.129 18.4405 4.517409 33.890774 0.769383
2006-08-30 07:12:54 51°19.114 2°53.129 18.4422 4.51762 33.892546 0.769383
2006-08-30 07:12:58 51°19.113 2°53.131 18.4414 4.517303 33.889889 0.735674
2006-08-30 07:13:03 51°19.114 2°53.13 18.4441 4.517725 33.893432 0.735674
2006-08-30 07:13:08 51°19.113 2°53.132 18.4472 4.517514 33.893437 0.769383
2006-08-30 07:13:13 51°19.112 2°53.133 18.452 4.517409 33.891959 0.769383
2006-08-30 07:13:18 51°19.112 2°53.134 18.4547 4.517409 33.891959 0.769383
2006-08-30 07:13:23 51°19.112 2°53.135 18.4537 4.518042 33.896681 0.769383
2006-08-30 07:13:28 51°19.112 2°53.137 18.4539 4.518252 33.89786 0.735674
2006-08-30 07:13:33 51°19.111 2°53.139 18.457 4.517831 33.894317 0.735674
2006-08-30 07:13:38 51°19.11 2°53.14 18.4563 4.51762 33.891954 0.769383
2006-08-30 07:13:43 51°19.11 2°53.14 18.4505 4.518569 33.895779 0.769383
2006-08-30 07:13:49 51°19.11 2°53.142 18.4448 4.518569 33.895779 0.769383
2006-08-30 07:13:53 51°19.11 2°53.142 18.4386 4.519096 33.898431 0.769383
2006-08-30 07:13:58 51°19.109 2°53.144 18.4321 4.520677 33.907568 0.769383
2006-08-30 07:14:03 51°19.108 2°53.145 18.4281 4.519834 33.898708 0.735674
2006-08-30 07:14:08 51°19.108 2°53.144 18.4257 4.519307 33.895465 0.735674
2006-08-30 07:14:13 51°19.107 2°53.146 18.4246 4.519623 33.896345 0.769383
2006-08-30 07:14:18 51°19.107 2°53.148 18.4238 4.519623 33.896345 0.769383
2006-08-30 07:14:23 51°19.106 2°53.148 18.4251 4.519623 33.897529 0.769383
2006-08-30 07:14:29 51°19.105 2°53.15 18.4284 4.519096 33.896062 0.769383
2006-08-30 07:14:33 51°19.105 2°53.15 18.4255 4.518252 33.894307 0.769383
2006-08-30 07:14:38 51°19.105 2°53.151 18.4262 4.51762 33.894323 0.769383
2006-08-30 07:14:43 51°19.104 2°53.152 18.4272 4.516987 33.892562 0.769383
2006-08-30 07:14:48 51°19.104 2°53.153 18.4247 4.516987 33.892562 0.769383
2006-08-30 07:14:53 51°19.104 2°53.154 18.4266 4.516249 33.88873 0.803093
2006-08-30 07:14:58 51°19.102 2°53.155 18.4272 4.515406 33.882828 0.735674
2006-08-30 07:15:03 51°19.102 2°53.156 18.427 4.514562 33.876333 0.769383
2006-08-30 07:15:08 51°19.102 2°53.157 18.4285 4.514351 33.874562 0.769383
2006-08-30 07:15:13 51°19.101 2°53.158 18.4269 4.514035 33.871904 0.769383
2006-08-30 07:15:18 51°19.101 2°53.159 18.4275 4.514035 33.871904 0.769383
2006-08-30 07:15:23 51°19.1 2°53.16 18.4281 4.512664 33.860981 0.803093
2006-08-30 07:15:28 51°19.099 2°53.161 18.4273 4.513086 33.86334 0.735674
2006-08-30 07:15:33 51°19.099 2°53.162 18.4254 4.512453 33.859209 0.735674
2006-08-30 07:15:38 51°19.098 2°53.163 18.4235 4.511504 33.852421 0.769383
2006-08-30 07:15:43 51°19.098 2°53.163 18.4223 4.511926 33.853005 0.769383
2006-08-30 07:15:48 51°19.097 2°53.164 18.4227 4.511926 33.853005 0.769383
2006-08-30 07:15:53 51°19.096 2°53.165 18.4217 4.510661 33.841785 0.735674
2006-08-30 07:15:58 51°19.095 2°53.166 18.4222 4.510766 33.843262 0.735674
2006-08-30 07:16:03 51°19.095 2°53.167 18.4205 4.510977 33.846217 0.769383
2006-08-30 07:16:08 51°19.094 2°53.168 18.4213 4.510661 33.844151 0.769383
2006-08-30 07:16:13 51°19.094 2°53.168 18.4223 4.511504 33.850645 0.769383
2006-08-30 07:16:18 51°19.093 2°53.17 18.4244 4.511504 33.850645 0.769383
2006-08-30 07:16:23 51°19.092 2°53.17 18.4226 4.509501 33.836774 0.769383
2006-08-30 07:16:29 51°19.092 2°53.171 18.423 4.510239 33.841791 0.769383
2006-08-30 07:16:33 51°19.091 2°53.172 18.4204 4.509817 33.839431 0.769383
2006-08-30 07:16:38 51°19.091 2°53.172 18.4192 4.509607 33.83766 0.769383
2006-08-30 07:16:43 51°19.09 2°53.173 18.4196 4.509501 33.837366 0.735674
2006-08-30 07:16:48 51°19.089 2°53.174 18.4192 4.509501 33.837366 0.735674
2006-08-30 07:16:53 51°19.088 2°53.175 18.4208 4.509607 33.838251 0.803093
2006-08-30 07:16:58 51°19.088 2°53.175 18.421 4.509501 33.836774 0.803093
2006-08-30 07:17:03 51°19.087 2°53.177 18.4193 4.509607 33.838251 0.735674
2006-08-30 07:17:08 51°19.087 2°53.177 18.4202 4.509712 33.839729 0.735674
2006-08-30 07:17:11 51°19.086 2°53.178 18.4208 4.509607 33.838251 0.769383
2006-08-30 07:17:18 51°19.086 2°53.179 18.4216 4.509607 33.838251 0.769383
2006-08-30 07:17:23 51°19.085 2°53.18 18.4217 4.509079 33.835597 0.769383
2006-08-30 07:17:28 51°19.084 2°53.181 18.422 4.509817 33.841206 0.735674
2006-08-30 07:17:33 51°19.084 2°53.181 18.4222 4.510239 33.844749 0.769383
2006-08-30 07:17:38 51°19.082 2°53.182 18.4217 4.510239 33.844749 0.769383
2006-08-30 07:17:43 51°19.082 2°53.182 18.4218 4.510028 33.844161 0.769383
2006-08-30 07:17:48 51°19.082 2°53.183 18.4222 4.510028 33.844161 0.769383
2006-08-30 07:17:54 51°19.081 2°53.183 18.4211 4.510134 33.84268 0.735674
2006-08-30 07:17:58 51°19.079 2°53.186 18.4216 4.509396 33.83648 0.769383
2006-08-30 07:18:03 51°19.078 2°53.187 18.4216 4.510028 33.842386 0.769383
2006-08-30 07:18:08 51°19.078 2°53.186 18.423 4.510661 33.847701 0.769383
2006-08-30 07:18:13 51°19.077 2°53.187 18.4212 4.510766 33.846812 0.769383
2006-08-30 07:18:18 51°19.076 2°53.188 18.4202 4.510766 33.846812 0.769383
2006-08-30 07:18:23 51°19.076 2°53.189 18.4194 4.51045 33.845929 0.769383
2006-08-30 07:18:28 51°19.074 2°53.189 18.4184 4.510345 33.844452 0.769383
2006-08-30 07:18:33 51°19.074 2°53.189 18.4189 4.510872 33.850656 0.735674
2006-08-30 07:18:38 51°19.073 2°53.19 18.4176 4.510977 33.850358 0.735674
2006-08-30 07:18:43 51°19.073 2°53.19 18.4189 4.511083 33.851244 0.769383
2006-08-30 07:18:48 51°19.072 2°53.19 18.4192 4.511083 33.851244 0.769383
2006-08-30 07:18:53 51°19.071 2°53.192 18.419 4.511504 33.852421 0.769383
2006-08-30 07:18:58 51°19.07 2°53.193 18.4185 4.504124 33.793378 0.735674
2006-08-30 07:19:03 51°19.07 2°53.193 18.4183 4.510872 33.849473 0.735674
2006-08-30 07:19:08 51°19.07 2°53.193 18.4181 4.510766 33.847995 0.769383
2006-08-30 07:19:13 51°19.069 2°53.195 18.4179 4.510766 33.847995 0.735674
2006-08-30 07:19:18 51°19.068 2°53.196 18.4168 4.510766 33.847995 0.735674
2006-08-30 07:19:23 51°19.068 2°53.197 18.4168 4.510872 33.850656 0.735674
2006-08-30 07:19:29 51°19.069 2°53.198 18.4149 4.510661 33.849476 0.769383
2006-08-30 07:19:33 51°19.068 2°53.201 18.4137 4.510556 33.847999 0.735674
2006-08-30 07:19:38 51°19.069 2°53.203 18.4133 4.511505 33.855379 0.735674
2006-08-30 07:19:43 51°19.07 2°53.207 18.4198 4.510977 33.851542 0.769383
2006-08-30 07:19:48 51°19.072 2°53.209 18.4165 4.510977 33.851542 0.769383
2006-08-30 07:19:53 51°19.074 2°53.213 18.4113 4.510766 33.850362 0.769383
2006-08-30 07:19:58 51°19.077 2°53.216 18.4122 4.511399 33.853902 0.735674
2006-08-30 07:20:03 51°19.08 2°53.22 18.4121 4.510766 33.852729 0.769383
2006-08-30 07:20:08 51°19.082 2°53.222 18.4117 4.510134 33.847414 0.735674
2006-08-30 07:20:13 51°19.086 2°53.226 18.4103 4.510661 33.851251 0.735674
2006-08-30 07:20:18 51°19.09 2°53.23 18.409 4.510661 33.851251 0.735674
2006-08-30 07:20:23 51°19.094 2°53.233 18.4081 4.509607 33.840618 0.803093
2006-08-30 07:20:28 51°19.098 2°53.238 18.4092 4.509607 33.845351 0.803093
2006-08-30 07:20:33 51°19.103 2°53.241 18.4103 4.508763 33.836489 0.769383
2006-08-30 07:20:38 51°19.107 2°53.244 18.4108 4.507709 33.829996 0.803093
2006-08-30 07:20:43 51°19.112 2°53.249 18.414 4.506654 33.819955 0.803093
2006-08-30 07:20:49 51°19.118 2°53.255 18.4185 4.506654 33.819955 0.803093
2006-08-30 07:20:53 51°19.122 2°53.259 18.4214 4.505705 33.813165 0.769383
2006-08-30 07:20:58 51°19.128 2°53.264 18.4251 4.504862 33.806669 0.769383
2006-08-30 07:21:02 51°19.133 2°53.268 18.4262 4.504546 33.805194 0.769383
2006-08-30 07:21:08 51°19.14 2°53.274 18.4289 4.503491 33.795745 0.803093
2006-08-30 07:21:13 51°19.146 2°53.28 18.4277 4.503702 33.799289 0.769383
2006-08-30 07:21:18 51°19.152 2°53.285 18.4295 4.503702 33.799289 0.769383
2006-08-30 07:21:23 51°19.158 2°53.291 18.4295 4.502437 33.786296 0.769383
2006-08-30 07:21:28 51°19.163 2°53.297 18.4314 4.501699 33.777734 0.803093
2006-08-30 07:21:32 51°19.168 2°53.301 18.4312 4.501066 33.768878 0.769383
2006-08-30 07:21:38 51°19.176 2°53.31 18.4322 4.50212 33.774191 0.803093
2006-08-30 07:21:43 51°19.182 2°53.317 18.4347 4.501488 33.766517 0.803093
2006-08-30 07:21:48 51°19.188 2°53.322 18.4345 4.501488 33.766517 0.803093
2006-08-30 07:21:51 51°19.193 2°53.325 18.4376 4.501277 33.764156 0.803093
2006-08-30 07:21:58 51°19.201 2°53.334 18.4369 4.500117 33.754418 0.803093
2006-08-30 07:22:03 51°19.207 2°53.339 18.4374 4.500012 33.751763 0.803093
2006-08-30 07:22:08 51°19.214 2°53.345 18.4392 4.500012 33.750583 0.836802
2006-08-30 07:22:14 51°19.223 2°53.353 18.4405 4.499695 33.747338 0.803093
2006-08-30 07:22:18 51°19.228 2°53.357 18.4385 4.499695 33.747338 0.803093
2006-08-30 07:22:23 51°19.234 2°53.363 18.4377 4.498852 33.741435 0.836802
2006-08-30 07:22:28 51°19.239 2°53.369 18.436 4.499379 33.742323 0.769383
2006-08-30 07:22:33 51°19.244 2°53.375 18.4371 4.499168 33.739374 0.803093
2006-08-30 07:22:38 51°19.25 2°53.38 18.4371 4.498008 33.72846 0.769383
2006-08-30 07:22:43 51°19.254 2°53.384 18.4368 4.499062 33.734953 0.803093
2006-08-30 07:22:48 51°19.258 2°53.389 18.4372 4.499062 33.734953 0.803093
2006-08-30 07:22:53 51°19.262 2°53.394 18.4392 4.496637 33.716955 0.803093
2006-08-30 07:22:58 51°19.266 2°53.4 18.4386 4.496216 33.716949 0.803093
2006-08-30 07:23:03 51°19.27 2°53.404 18.4379 4.496743 33.716072 0.803093
2006-08-30 07:23:08 51°19.273 2°53.408 18.4381 4.495583 33.709872 0.803093
2006-08-30 07:23:13 51°19.276 2°53.412 18.4406 4.496005 33.711645 0.769383
2006-08-30 07:23:18 51°19.279 2°53.415 18.4418 4.496005 33.711645 0.769383
2006-08-30 07:23:22 51°19.281 2°53.417 18.4421 4.495161 33.703976 0.803093
2006-08-30 07:23:28 51°19.285 2°53.421 18.4408 4.495688 33.708401 0.803093
2006-08-30 07:23:33 51°19.287 2°53.424 18.4414 4.496216 33.71047 0.803093
2006-08-30 07:23:38 51°19.289 2°53.427 18.439 4.496005 33.709289 0.769383
2006-08-30 07:23:43 51°19.292 2°53.429 18.4391 4.495688 33.707223 0.803093
2006-08-30 07:23:48 51°19.293 2°53.432 18.439 4.495688 33.707223 0.803093
2006-08-30 07:23:53 51°19.294 2°53.434 18.4388 4.496216 33.709292 0.836802
2006-08-30 07:23:58 51°19.295 2°53.436 18.4391 4.496848 33.716957 0.769383
2006-08-30 07:24:03 51°19.296 2°53.437 18.437 4.496216 33.71047 0.836802
2006-08-30 07:24:08 51°19.295 2°53.439 18.436 4.495899 33.707226 0.803093
2006-08-30 07:24:13 51°19.295 2°53.439 18.4367 4.495794 33.706341 0.836802
2006-08-30 07:24:18 51°19.294 2°53.441 18.437 4.495794 33.706341 0.836802
2006-08-30 07:24:23 51°19.294 2°53.442 18.4399 4.495267 33.701917 0.803093
2006-08-30 07:24:28 51°19.293 2°53.443 18.4394 4.495794 33.705753 0.803093
2006-08-30 07:24:33 51°19.293 2°53.443 18.4403 4.496743 33.712539 0.803093
2006-08-30 07:24:38 51°19.293 2°53.445 18.44 4.496216 33.712237 0.769383
2006-08-30 07:24:43 51°19.293 2°53.445 18.44 4.496954 33.71902 0.803093
2006-08-30 07:24:48 51°19.292 2°53.447 18.4388 4.496954 33.71902 0.803093
2006-08-30 07:24:53 51°19.291 2°53.449 18.4397 4.496321 33.710766 0.803093
2006-08-30 07:24:58 51°19.291 2°53.449 18.4392 4.495794 33.708108 0.803093
2006-08-30 07:25:03 51°19.291 2°53.451 18.4382 4.495267 33.706039 0.803093
2006-08-30 07:25:08 51°19.29 2°53.452 18.4372 4.495794 33.705753 0.803093
2006-08-30 07:25:13 51°19.29 2°53.454 18.437 4.495372 33.705746 0.803093
2006-08-30 07:25:18 51°19.29 2°53.454 18.4371 4.495372 33.705746 0.803093
2006-08-30 07:25:23 51°19.289 2°53.456 18.4383 4.495794 33.705164 0.836802
2006-08-30 07:25:28 51°19.288 2°53.457 18.4376 4.495794 33.705753 0.803093
2006-08-30 07:25:33 51°19.287 2°53.458 18.4406 4.495688 33.703102 0.836802
2006-08-30 07:25:38 51°19.287 2°53.459 18.4457 4.495267 33.701917 0.803093
2006-08-30 07:25:43 51°19.286 2°53.46 18.4442 4.495478 33.703098 0.803093
2006-08-30 07:25:48 51°19.285 2°53.462 18.4429 4.495478 33.703098 0.803093
2006-08-30 07:25:53 51°19.285 2°53.462 18.4415 4.495267 33.702506 0.836802
2006-08-30 07:25:59 51°19.284 2°53.465 18.4406 4.495899 33.707815 0.803093
2006-08-30 07:26:03 51°19.284 2°53.464 18.4365 4.495478 33.704276 0.803093
2006-08-30 07:26:08 51°19.283 2°53.465 18.4341 4.495478 33.704276 0.769383
2006-08-30 07:26:13 51°19.282 2°53.467 18.4321 4.495583 33.702805 0.803093
2006-08-30 07:26:18 51°19.281 2°53.468 18.4317 4.495583 33.702805 0.803093
2006-08-30 07:26:22 51°19.281 2°53.469 18.4248 4.495477 33.701332 0.803093
2006-08-30 07:26:28 51°19.28 2°53.47 18.4199 4.496215 33.702816 0.735674
2006-08-30 07:26:32 51°19.28 2°53.47 18.4146 4.495688 33.702513 0.769383
2006-08-30 07:26:38 51°19.279 2°53.472 18.4078 4.494529 33.693958 0.769383
2006-08-30 07:26:43 51°19.278 2°53.474 18.403 4.493896 33.691003 0.769383
2006-08-30 07:26:48 51°19.278 2°53.474 18.3978 4.493896 33.691003 0.769383
2006-08-30 07:26:53 51°19.277 2°53.475 18.3936 4.492947 33.684805 0.769383
2006-08-30 07:26:58 51°19.276 2°53.477 18.3913 4.49242 33.68097 0.769383
2006-08-30 07:27:03 51°19.275 2°53.478 18.3882 4.488097 33.648222 0.803093
2006-08-30 07:27:08 51°19.274 2°53.48 18.3831 4.48388 33.616946 0.803093
2006-08-30 07:27:13 51°19.273 2°53.481 18.3824 4.476288 33.558532 0.769383
2006-08-30 07:27:18 51°19.273 2°53.481 18.3788 4.476288 33.558532 0.769383
2006-08-30 07:27:24 51°19.273 2°53.483 18.3777 4.468591 33.498648 0.803093
2006-08-30 07:27:28 51°19.272 2°53.485 18.377 4.459946 33.431976 0.803093
2006-08-30 07:27:33 51°19.272 2°53.485 18.3773 4.452776 33.377101 0.803093
2006-08-30 07:27:38 51°19.271 2°53.486 18.3822 4.449508 33.352607 0.836802
2006-08-30 07:27:42 51°19.271 2°53.487 18.3918 4.445607 33.322807 0.803093
2006-08-30 07:27:49 51°19.27 2°53.489 18.4003 4.445607 33.322807 0.803093
2006-08-30 07:27:53 51°19.269 2°53.491 18.4059 4.44255 33.301245 0.769383
2006-08-30 07:27:58 51°19.269 2°53.492 18.4118 4.440019 33.282937 0.803093
2006-08-30 07:28:02 51°19.269 2°53.492 18.4161 4.436962 33.25788 0.803093
2006-08-30 07:28:08 51°19.269 2°53.494 18.4192 4.434748 33.241642 0.803093
2006-08-30 07:28:13 51°19.268 2°53.495 18.4212 4.436435 33.256369 0.803093
2006-08-30 07:28:18 51°19.268 2°53.496 18.4224 4.436435 33.256369 0.803093
2006-08-30 07:28:23 51°19.267 2°53.497 18.424 4.443709 33.313302 0.803093
2006-08-30 07:28:28 51°19.266 2°53.499 18.4241 4.451933 33.379949 0.803093
2006-08-30 07:28:33 51°19.266 2°53.499 18.4258 4.460368 33.442529 0.769383
2006-08-30 07:28:38 51°19.266 2°53.5 18.4258 4.466061 33.484445 0.769383
2006-08-30 07:28:43 51°19.266 2°53.502 18.4247 4.472704 33.53549 0.803093
2006-08-30 07:28:48 51°19.266 2°53.503 18.425 4.472704 33.53549 0.803093
2006-08-30 07:28:53 51°19.266 2°53.503 18.4219 4.478608 33.581516 0.803093
2006-08-30 07:28:58 51°19.265 2°53.504 18.4237 4.479979 33.591257 0.769383
2006-08-30 07:29:03 51°19.263 2°53.507 18.4238 4.482509 33.608968 0.803093
2006-08-30 07:29:08 51°19.263 2°53.507 18.4236 4.484091 33.622828 0.769383
2006-08-30 07:29:13 51°19.262 2°53.508 18.4256 4.483985 33.621943 0.769383
2006-08-30 07:29:19 51°19.262 2°53.509 18.4256 4.483985 33.621943 0.769383
2006-08-30 07:29:23 51°19.262 2°53.509 18.4255 4.483774 33.623699 0.803093
2006-08-30 07:29:28 51°19.261 2°53.511 18.4249 4.487992 33.652629 0.803093
2006-08-30 07:29:33 51°19.261 2°53.511 18.4246 4.486832 33.643483 0.769383
2006-08-30 07:29:38 51°19.26 2°53.512 18.4242 4.487148 33.646726 0.803093
2006-08-30 07:29:43 51°19.26 2°53.512 18.4228 4.487675 33.649974 0.769383
2006-08-30 07:29:48 51°19.259 2°53.513 18.4215 4.487675 33.649974 0.769383
2006-08-30 07:29:53 51°19.259 2°53.513 18.4199 4.485672 33.637277 0.769383
2006-08-30 07:29:58 51°19.259 2°53.515 18.4195 4.486937 33.647896 0.803093
2006-08-30 07:30:03 51°19.258 2°53.517 18.4173 4.487043 33.644665 0.803093
2006-08-30 07:30:08 51°19.257 2°53.517 18.4155 4.487043 33.644665 0.769383
2006-08-30 07:30:13 51°19.257 2°53.517 18.4162 4.487359 33.64732 0.769383
2006-08-30 07:30:18 51°19.257 2°53.519 18.415 4.487359 33.64732 0.769383
2006-08-30 07:30:23 51°19.256 2°53.52 18.417 4.487043 33.645253 0.803093
2006-08-30 07:30:28 51°19.256 2°53.52 18.4189 4.487148 33.647314 0.803093
2006-08-30 07:30:33 51°19.256 2°53.521 18.4204 4.486726 33.644362 0.769383
2006-08-30 07:30:38 51°19.255 2°53.523 18.4231 4.48641 33.642884 0.803093
2006-08-30 07:30:43 51°19.255 2°53.523 18.424 4.486094 33.640817 0.769383
2006-08-30 07:30:48 51°19.254 2°53.523 18.4264 4.486094 33.640817 0.769383
2006-08-30 07:30:53 51°19.254 2°53.525 18.4282 4.486516 33.646121 0.769383
2006-08-30 07:30:58 51°19.254 2°53.526 18.4296 4.486094 33.642581 0.803093
2006-08-30 07:31:03 51°19.253 2°53.526 18.4283 4.485778 33.639926 0.803093
2006-08-30 07:31:08 51°19.253 2°53.528 18.4282 4.48525 33.635501 0.769383
2006-08-30 07:31:13 51°19.252 2°53.529 18.4269 4.48525 33.635501 0.769383
2006-08-30 07:31:18 51°19.251 2°53.529 18.4263 4.48525 33.635501 0.769383
2006-08-30 07:31:21 51°19.251 2°53.53 18.4257 4.485567 33.638156 0.803093
2006-08-30 07:31:28 51°19.25 2°53.531 18.4248 4.485567 33.632865 0.803093
2006-08-30 07:31:32 51°19.249 2°53.532 18.4261 4.486621 33.63995 0.769383
2006-08-30 07:31:38 51°19.249 2°53.533 18.4288 4.485672 33.630811 0.735674
2006-08-30 07:31:44 51°19.247 2°53.534 18.429 4.484512 33.621079 0.803093
2006-08-30 07:31:48 51°19.247 2°53.535 18.4287 4.484512 33.621079 0.803093
2006-08-30 07:31:53 51°19.247 2°53.535 18.4295 4.485039 33.624915 0.769383
2006-08-30 07:31:58 51°19.246 2°53.537 18.4301 4.485039 33.626678 0.769383
2006-08-30 07:32:02 51°19.246 2°53.536 18.4286 4.485039 33.627265 0.769383
2006-08-30 07:32:09 51°19.245 2°53.538 18.4265 4.484934 33.626968 0.803093
2006-08-30 07:32:13 51°19.244 2°53.538 18.4274 4.484829 33.624908 0.769383
2006-08-30 07:32:18 51°19.243 2°53.54 18.4261 4.484829 33.624908 0.769383
2006-08-30 07:32:23 51°19.242 2°53.54 18.4265 4.484934 33.625205 0.769383
2006-08-30 07:32:29 51°19.242 2°53.54 18.4268 4.484828 33.622558 0.769383
2006-08-30 07:32:33 51°19.241 2°53.542 18.4257 4.485145 33.626975 0.803093
2006-08-30 07:32:38 51°19.241 2°53.542 18.4274 4.484512 33.619904 0.769383
2006-08-30 07:32:43 51°19.24 2°53.544 18.4292 4.484512 33.619904 0.803093
2006-08-30 07:32:48 51°19.239 2°53.544 18.4301 4.484512 33.619904 0.803093
2006-08-30 07:32:53 51°19.238 2°53.545 18.4311 4.48525 33.626097 0.769383
2006-08-30 07:32:58 51°19.238 2°53.545 18.4308 4.48409 33.61754 0.803093
2006-08-30 07:33:02 51°19.237 2°53.545 18.4316 4.48388 33.615183 0.803093
2006-08-30 07:33:08 51°19.236 2°53.546 18.4309 4.483669 33.614001 0.803093
2006-08-30 07:33:13 51°19.235 2°53.547 18.4322 4.483563 33.613704 0.803093
2006-08-30 07:33:18 51°19.234 2°53.548 18.4326 4.483563 33.613704 0.803093
2006-08-30 07:33:23 51°19.233 2°53.549 18.4333 4.483563 33.611942 0.803093
2006-08-30 07:33:28 51°19.233 2°53.549 18.4322 4.483458 33.611645 0.803093
2006-08-30 07:33:33 51°19.232 2°53.55 18.4334 4.483563 33.612529 0.803093
2006-08-30 07:33:38 51°19.231 2°53.55 18.4336 4.483036 33.606344 0.803093
2006-08-30 07:33:42 51°19.231 2°53.55 18.4335 4.482614 33.602806 0.769383
2006-08-30 07:33:48 51°19.23 2°53.551 18.4318 4.482614 33.602806 0.769383
2006-08-30 07:33:53 51°19.229 2°53.552 18.4291 4.483458 33.609296 0.769383
2006-08-30 07:33:58 51°19.229 2°53.552 18.4293 4.48272 33.602516 0.803093
2006-08-30 07:34:04 51°19.228 2°53.553 18.4257 4.482931 33.603698 0.769383
2006-08-30 07:34:08 51°19.227 2°53.554 18.425 4.483036 33.605757 0.803093
2006-08-30 07:34:13 51°19.226 2°53.556 18.4254 4.483036 33.604583 0.803093
2006-08-30 07:34:18 51°19.225 2°53.556 18.4254 4.483036 33.604583 0.803093
2006-08-30 07:34:24 51°19.225 2°53.556 18.4236 4.482509 33.60016 0.803093
2006-08-30 07:34:28 51°19.224 2°53.558 18.4235 4.482509 33.599573 0.769383
2006-08-30 07:34:33 51°19.223 2°53.558 18.4236 4.482403 33.601037 0.803093
2006-08-30 07:34:38 51°19.222 2°53.559 18.4233 4.481771 33.595729 0.803093
2006-08-30 07:34:44 51°19.222 2°53.558 18.4249 4.482403 33.601624 0.769383
2006-08-30 07:34:48 51°19.221 2°53.56 18.4242 4.482403 33.601624 0.769383
2006-08-30 07:34:53 51°19.221 2°53.56 18.425 4.482825 33.605749 0.769383
2006-08-30 07:34:58 51°19.221 2°53.56 18.4239 4.482193 33.601616 0.769383
2006-08-30 07:35:03 51°19.22 2°53.561 18.4225 4.481033 33.594233 0.803093
2006-08-30 07:35:08 51°19.219 2°53.562 18.4221 4.480822 33.592464 0.769383
2006-08-30 07:35:14 51°19.218 2°53.562 18.4226 4.480822 33.592464 0.803093
2006-08-30 07:35:18 51°19.217 2°53.564 18.4227 4.480822 33.592464 0.803093
2006-08-30 07:35:23 51°19.218 2°53.564 18.424 4.480717 33.592166 0.769383
2006-08-30 07:35:28 51°19.218 2°53.566 18.4253 4.47924 33.578607 0.769383
2006-08-30 07:35:31 51°19.218 2°53.567 18.4271 4.480189 33.587156 0.803093
2006-08-30 07:35:38 51°19.218 2°53.57 18.4286 4.479557 33.581261 0.769383
2006-08-30 07:35:43 51°19.219 2°53.572 18.4359 4.479557 33.582435 0.803093
2006-08-30 07:35:48 51°19.22 2°53.575 18.4445 4.479557 33.582435 0.803093
2006-08-30 07:35:53 51°19.222 2°53.578 18.4416 4.479557 33.583022 0.769383
2006-08-30 07:35:58 51°19.224 2°53.582 18.4394 4.479873 33.585089 0.769383
2006-08-30 07:36:03 51°19.226 2°53.585 18.439 4.47903 33.577425 0.803093
2006-08-30 07:36:08 51°19.229 2°53.589 18.4394 4.478608 33.572713 0.803093
2006-08-30 07:36:13 51°19.232 2°53.594 18.4381 4.478713 33.573598 0.769383
2006-08-30 07:36:18 51°19.235 2°53.599 18.4379 4.478713 33.573598 0.769383
2006-08-30 07:36:24 51°19.239 2°53.605 18.4378 4.478397 33.567425 0.803093
2006-08-30 07:36:28 51°19.242 2°53.608 18.4371 4.478291 33.563022 0.803093
2006-08-30 07:36:33 51°19.246 2°53.613 18.4379 4.478502 33.561859 0.836802
2006-08-30 07:36:38 51°19.25 2°53.619 18.4383 4.478186 33.559206 0.803093
2006-08-30 07:36:43 51°19.254 2°53.625 18.4378 4.47808 33.558322 0.836802
2006-08-30 07:36:48 51°19.26 2°53.633 18.4391 4.47808 33.558322 0.836802
2006-08-30 07:36:53 51°19.266 2°53.641 18.4396 4.477553 33.552143 0.836802
2006-08-30 07:36:58 51°19.273 2°53.65 18.4366 4.477448 33.553603 0.836802
2006-08-30 07:37:03 51°19.28 2°53.66 18.427 4.477026 33.551238 0.836802
2006-08-30 07:37:08 51°19.287 2°53.67 18.4194 4.477342 33.553305 0.836802
2006-08-30 07:37:13 51°19.295 2°53.678 18.4148 4.476815 33.549469 0.803093
2006-08-30 07:37:18 51°19.303 2°53.688 18.4113 4.476815 33.549469 0.803093
2006-08-30 07:37:23 51°19.312 2°53.698 18.4102 4.476604 33.545357 0.870512
2006-08-30 07:37:28 51°19.321 2°53.709 18.4093 4.476921 33.550354 0.870512
2006-08-30 07:37:33 51°19.33 2°53.717 18.4083 4.475761 33.539455 0.836802
2006-08-30 07:37:38 51°19.339 2°53.728 18.4079 4.469435 33.488164 0.870512
2006-08-30 07:37:43 51°19.349 2°53.739 18.4073 4.45984 33.411234 0.870512
2006-08-30 07:37:48 51°19.358 2°53.75 18.4085 4.45984 33.411234 0.870512
2006-08-30 07:37:53 51°19.367 2°53.762 18.4084 4.450667 33.339598 0.870512
2006-08-30 07:37:58 51°19.377 2°53.772 18.4087 4.440968 33.262969 0.904221
2006-08-30 07:38:03 51°19.386 2°53.784 18.4087 4.436856 33.230841 0.904221
2006-08-30 07:38:08 51°19.394 2°53.796 18.4093 4.433798 33.206387 0.870512
2006-08-30 07:38:13 51°19.404 2°53.808 18.41 4.428105 33.161593 0.870512
2006-08-30 07:38:18 51°19.412 2°53.82 18.4109 4.428105 33.161593 0.870512
2006-08-30 07:38:23 51°19.422 2°53.832 18.4115 4.425785 33.141585 0.870512
2006-08-30 07:38:29 51°19.432 2°53.847 18.4124 4.425469 33.138936 0.836802
2006-08-30 07:38:33 51°19.439 2°53.858 18.412 4.422412 33.115066 0.870512
2006-08-30 07:38:38 51°19.448 2°53.869 18.4114 4.425047 33.136562 0.870512
2006-08-30 07:38:44 51°19.458 2°53.885 18.4103 4.421674 33.107728 0.904221
2006-08-30 07:38:47 51°19.462 2°53.893 18.4107 4.421674 33.107728 0.904221
2006-08-30 07:38:53 51°19.471 2°53.908 18.4124 4.42199 33.110376 0.870512
2006-08-30 07:38:58 51°19.479 2°53.919 18.4123 4.422412 33.112172 0.870512
2006-08-30 07:39:03 51°19.487 2°53.931 18.4135 4.422517 33.113055 0.836802
2006-08-30 07:39:08 51°19.494 2°53.943 18.4143 4.422728 33.1154 0.836802
2006-08-30 07:39:13 51°19.501 2°53.954 18.4148 4.423888 33.123954 0.870512
2006-08-30 07:39:18 51°19.509 2°53.965 18.4151 4.423888 33.123954 0.870512
2006-08-30 07:39:23 51°19.516 2°53.978 18.4151 4.424309 33.127486 0.870512
2006-08-30 07:39:29 51°19.524 2°53.99 18.4149 4.424626 33.131293 0.870512
2006-08-30 07:39:33 51°19.53 2°53.999 18.4158 4.425258 33.13717 0.870512
2006-08-30 07:39:38 51°19.538 2°54.009 18.4163 4.425785 33.140427 0.836802
2006-08-30 07:39:43 51°19.545 2°54.02 18.4156 4.425574 33.137503 0.870512
2006-08-30 07:39:48 51°19.552 2°54.031 18.4155 4.425574 33.137503 0.870512
2006-08-30 07:39:53 51°19.559 2°54.041 18.4163 4.42568 33.137807 0.870512
2006-08-30 07:39:58 51°19.565 2°54.05 18.4167 4.425258 33.135433 0.870512
2006-08-30 07:40:03 51°19.571 2°54.057 18.4174 4.424942 33.131626 0.870512
2006-08-30 07:40:08 51°19.576 2°54.066 18.4187 4.424204 33.124867 0.870512
2006-08-30 07:40:13 51°19.582 2°54.074 18.4183 4.424098 33.122826 0.904221
2006-08-30 07:40:18 51°19.587 2°54.081 18.4189 4.424098 33.122826 0.904221
2006-08-30 07:40:22 51°19.59 2°54.087 18.4177 4.423044 33.115155 0.870512
2006-08-30 07:40:28 51°19.595 2°54.096 18.4181 4.422095 33.106631 0.904221
2006-08-30 07:40:33 51°19.599 2°54.102 18.4174 4.421146 33.098686 0.870512
2006-08-30 07:40:38 51°19.603 2°54.108 18.4177 4.42199 33.103434 0.904221
2006-08-30 07:40:43 51°19.605 2°54.116 18.4175 4.419987 33.087819 0.904221
2006-08-30 07:40:48 51°19.608 2°54.122 18.4171 4.419987 33.087819 0.904221
2006-08-30 07:40:53 51°19.611 2°54.127 18.4174 4.419459 33.082249 0.904221
2006-08-30 07:40:58 51°19.614 2°54.133 18.4183 4.418405 33.074001 0.904221
2006-08-30 07:41:03 51°19.615 2°54.138 18.4196 4.417667 33.067244 0.904221
2006-08-30 07:41:08 51°19.617 2°54.142 18.4188 4.416718 33.058146 0.870512
2006-08-30 07:41:13 51°19.618 2°54.146 18.4179 4.415769 33.051358 0.870512
2006-08-30 07:41:18 51°19.619 2°54.148 18.4166 4.415769 33.051358 0.870512
2006-08-30 07:41:23 51°19.62 2°54.15 18.4146 4.415031 33.045758 0.870512
2006-08-30 07:41:29 51°19.62 2°54.153 18.4154 4.41461 33.041651 0.870512
2006-08-30 07:41:33 51°19.619 2°54.153 18.4155 4.412079 33.020472 0.870512
2006-08-30 07:41:38 51°19.618 2°54.154 18.4154 4.411447 33.014601 0.93793
2006-08-30 07:41:42 51°19.618 2°54.153 18.4151 4.409865 33.001365 0.904221
2006-08-30 07:41:49 51°19.616 2°54.153 18.4155 4.409865 33.001365 0.904221
2006-08-30 07:41:53 51°19.616 2°54.154 18.4163 4.408811 32.993119 0.870512
2006-08-30 07:41:58 51°19.615 2°54.154 18.4146 4.408284 32.990436 0.870512
2006-08-30 07:42:03 51°19.614 2°54.154 18.4137 4.407651 32.984566 0.904221
2006-08-30 07:42:08 51°19.613 2°54.154 18.4126 4.407124 32.980731 0.93793
2006-08-30 07:42:13 51°19.612 2°54.155 18.412 4.406491 32.975437 0.93793
2006-08-30 07:42:18 51°19.611 2°54.156 18.4124 4.406491 32.975437 0.93793
2006-08-30 07:42:23 51°19.61 2°54.156 18.4117 4.406281 32.973673 0.93793
2006-08-30 07:42:28 51°19.609 2°54.157 18.4116 4.406491 32.97659 0.93793
2006-08-30 07:42:34 51°19.608 2°54.157 18.4117 4.406597 32.978048 0.904221
2006-08-30 07:42:38 51°19.608 2°54.157 18.411 4.405964 32.972178 0.93793
2006-08-30 07:42:44 51°19.606 2°54.158 18.4109 4.406913 32.981271 0.904221
2006-08-30 07:42:49 51°19.605 2°54.157 18.4113 4.406913 32.981271 0.904221
2006-08-30 07:42:54 51°19.604 2°54.158 18.4103 4.406491 32.977166 0.904221
2006-08-30 07:42:58 51°19.603 2°54.159 18.4102 4.406702 32.980083 0.904221
2006-08-30 07:43:03 51°19.602 2°54.16 18.4111 4.407335 32.984801 0.93793
2006-08-30 07:43:08 51°19.602 2°54.16 18.4099 4.406808 32.980389 0.93793
2006-08-30 07:43:12 51°19.601 2°54.16 18.4087 4.407335 32.985954 0.93793
2006-08-30 07:43:18 51°19.599 2°54.161 18.4074 4.407335 32.985954 0.93793
2006-08-30 07:43:23 51°19.598 2°54.161 18.4045 4.406491 32.977742 0.93793
2006-08-30 07:43:28 51°19.598 2°54.16 18.4042 4.406702 32.980083 0.904221
2006-08-30 07:43:33 51°19.597 2°54.161 18.4053 4.406386 32.978588 0.904221
2006-08-30 07:43:38 51°19.596 2°54.162 18.4071 4.406175 32.976248 0.904221
2006-08-30 07:43:41 51°19.596 2°54.162 18.4073 4.406281 32.97713 0.870512
2006-08-30 07:43:48 51°19.594 2°54.162 18.4071 4.406281 32.97713 0.870512
2006-08-30 07:43:53 51°19.593 2°54.164 18.4066 4.406281 32.977706 0.870512
2006-08-30 07:43:57 51°19.592 2°54.164 18.406 4.406281 32.979435 0.870512
2006-08-30 07:44:03 51°19.591 2°54.165 18.4067 4.406281 32.978859 0.870512
2006-08-30 07:44:08 51°19.59 2°54.165 18.4067 4.406702 32.982965 0.836802
2006-08-30 07:44:13 51°19.589 2°54.166 18.4061 4.406808 32.985576 0.836802
2006-08-30 07:44:19 51°19.589 2°54.166 18.4077 4.406808 32.985576 0.836802
2006-08-30 07:44:23 51°19.588 2°54.166 18.4071 4.407124 32.985342 0.870512
2006-08-30 07:44:28 51°19.587 2°54.167 18.4082 4.407862 32.993825 0.870512
2006-08-30 07:44:33 51°19.586 2°54.167 18.4071 4.408284 32.996778 0.870512
2006-08-30 07:44:38 51°19.585 2°54.168 18.4062 4.408916 33.00265 0.870512
2006-08-30 07:44:43 51°19.584 2°54.169 18.4061 4.408178 32.996472 0.870512
2006-08-30 07:44:48 51°19.583 2°54.169 18.4061 4.408178 32.996472 0.870512
2006-08-30 07:44:53 51°19.582 2°54.17 18.4062 4.409444 33.006486 0.870512
2006-08-30 07:44:58 51°19.581 2°54.171 18.4071 4.409865 33.010016 0.803093
2006-08-30 07:45:04 51°19.58 2°54.172 18.4077 4.410392 33.013275 0.836802
2006-08-30 07:45:08 51°19.58 2°54.172 18.4068 4.41092 33.018265 0.870512
2006-08-30 07:45:13 51°19.579 2°54.172 18.4083 4.411025 33.019724 0.870512
2006-08-30 07:45:18 51°19.578 2°54.173 18.4066 4.411025 33.019724 0.870512
2006-08-30 07:45:23 51°19.578 2°54.173 18.407 4.411025 33.019724 0.836802
2006-08-30 07:45:28 51°19.577 2°54.174 18.4047 4.411236 33.024375 0.870512
2006-08-30 07:45:33 51°19.576 2°54.175 18.4055 4.411868 33.02794 0.870512
2006-08-30 07:45:38 51°19.574 2°54.177 18.4036 4.411658 33.02502 0.836802
2006-08-30 07:45:44 51°19.574 2°54.176 18.4026 4.411552 33.021829 0.870512
2006-08-30 07:45:48 51°19.573 2°54.176 18.4026 4.411552 33.021829 0.870512
2006-08-30 07:45:54 51°19.573 2°54.177 18.4037 4.410603 33.016771 0.836802
2006-08-30 07:45:58 51°19.571 2°54.178 18.4036 4.411869 33.030249 0.836802
2006-08-30 07:46:03 51°19.571 2°54.178 18.4048 4.412079 33.027973 0.870512